<?xml version="1.0" encoding="UTF-8" standalone="no" ?>
<gpx xmlns="http://www.topografix.com/GPX/1/1" xmlns:xsi="http://www.w3.org/2001/XMLSchema-instance" xsi:schemaLocation="http://www.topografix.com/GPX/1/1 http://www.topografix.com/GPX/1/1/gpx.xsd" version="1.1" creator="VisuGPX - https://www.visugpx.com">
  <metadata>
    <name>De Vaugneray au lac du Ronzey</name>
  </metadata>
  <trk>
    <name><![CDATA[De Vaugneray au lac du Ronzey - 19223 - UtagawaVTT.com]]></name>
    <trkseg>
      <trkpt lat="45.73698" lon="4.65563">
        <ele>398.4</ele>
        <time>2018-09-09T07:50:32Z</time>
      </trkpt>
      <trkpt lat="45.73695" lon="4.65559">
        <ele>401.25</ele>
        <time>2018-09-09T07:50:41Z</time>
      </trkpt>
      <trkpt lat="45.73697" lon="4.65557">
        <ele>402.33</ele>
        <time>2018-09-09T07:51:03Z</time>
      </trkpt>
      <trkpt lat="45.73699" lon="4.65559">
        <ele>402.29</ele>
        <time>2018-09-09T07:51:05Z</time>
      </trkpt>
      <trkpt lat="45.73695" lon="4.65566">
        <ele>402.27</ele>
        <time>2018-09-09T07:51:08Z</time>
      </trkpt>
      <trkpt lat="45.7369" lon="4.65572">
        <ele>402.33</ele>
        <time>2018-09-09T07:51:10Z</time>
      </trkpt>
      <trkpt lat="45.73687" lon="4.65573">
        <ele>402.35</ele>
        <time>2018-09-09T07:51:11Z</time>
      </trkpt>
      <trkpt lat="45.73678" lon="4.65564">
        <ele>402.38</ele>
        <time>2018-09-09T07:51:13Z</time>
      </trkpt>
      <trkpt lat="45.73631" lon="4.65498">
        <ele>397.23</ele>
        <time>2018-09-09T07:51:23Z</time>
      </trkpt>
      <trkpt lat="45.73578" lon="4.65408">
        <ele>386.37</ele>
        <time>2018-09-09T07:51:34Z</time>
      </trkpt>
      <trkpt lat="45.73556" lon="4.65356">
        <ele>379.51</ele>
        <time>2018-09-09T07:51:40Z</time>
      </trkpt>
      <trkpt lat="45.73554" lon="4.65353">
        <ele>378.52</ele>
        <time>2018-09-09T07:51:41Z</time>
      </trkpt>
      <trkpt lat="45.73551" lon="4.65353">
        <ele>377.62</ele>
        <time>2018-09-09T07:51:42Z</time>
      </trkpt>
      <trkpt lat="45.73546" lon="4.65356">
        <ele>375.97</ele>
        <time>2018-09-09T07:51:44Z</time>
      </trkpt>
      <trkpt lat="45.73537" lon="4.65357">
        <ele>374.34</ele>
        <time>2018-09-09T07:51:47Z</time>
      </trkpt>
      <trkpt lat="45.735" lon="4.65368">
        <ele>373.81</ele>
        <time>2018-09-09T07:51:58Z</time>
      </trkpt>
      <trkpt lat="45.7348" lon="4.65368">
        <ele>374.85</ele>
        <time>2018-09-09T07:52:06Z</time>
      </trkpt>
      <trkpt lat="45.73467" lon="4.65352">
        <ele>376.91</ele>
        <time>2018-09-09T07:52:16Z</time>
      </trkpt>
      <trkpt lat="45.73461" lon="4.65339">
        <ele>379.33</ele>
        <time>2018-09-09T07:52:24Z</time>
      </trkpt>
      <trkpt lat="45.73447" lon="4.65316">
        <ele>381.74</ele>
        <time>2018-09-09T07:52:36Z</time>
      </trkpt>
      <trkpt lat="45.73406" lon="4.65264">
        <ele>386.51</ele>
        <time>2018-09-09T07:53:01Z</time>
      </trkpt>
      <trkpt lat="45.73377" lon="4.6522">
        <ele>389.24</ele>
        <time>2018-09-09T07:53:22Z</time>
      </trkpt>
      <trkpt lat="45.73313" lon="4.65114">
        <ele>398.05</ele>
        <time>2018-09-09T07:54:10Z</time>
      </trkpt>
      <trkpt lat="45.73296" lon="4.65091">
        <ele>401.43</ele>
        <time>2018-09-09T07:54:24Z</time>
      </trkpt>
      <trkpt lat="45.73297" lon="4.65084">
        <ele>402.19</ele>
        <time>2018-09-09T07:54:27Z</time>
      </trkpt>
      <trkpt lat="45.73303" lon="4.65078">
        <ele>403.02</ele>
        <time>2018-09-09T07:54:30Z</time>
      </trkpt>
      <trkpt lat="45.7332" lon="4.65051">
        <ele>403.97</ele>
        <time>2018-09-09T07:54:39Z</time>
      </trkpt>
      <trkpt lat="45.7333" lon="4.64996">
        <ele>403.73</ele>
        <time>2018-09-09T07:54:47Z</time>
      </trkpt>
      <trkpt lat="45.73337" lon="4.64969">
        <ele>403.26</ele>
        <time>2018-09-09T07:54:51Z</time>
      </trkpt>
      <trkpt lat="45.73343" lon="4.64959">
        <ele>403.07</ele>
        <time>2018-09-09T07:54:53Z</time>
      </trkpt>
      <trkpt lat="45.73351" lon="4.64951">
        <ele>402.98</ele>
        <time>2018-09-09T07:54:55Z</time>
      </trkpt>
      <trkpt lat="45.7336" lon="4.64948">
        <ele>402.98</ele>
        <time>2018-09-09T07:54:57Z</time>
      </trkpt>
      <trkpt lat="45.73413" lon="4.64943">
        <ele>403.81</ele>
        <time>2018-09-09T07:55:08Z</time>
      </trkpt>
      <trkpt lat="45.73471" lon="4.64942">
        <ele>405.72</ele>
        <time>2018-09-09T07:55:21Z</time>
      </trkpt>
      <trkpt lat="45.73484" lon="4.64939">
        <ele>406.09</ele>
        <time>2018-09-09T07:55:24Z</time>
      </trkpt>
      <trkpt lat="45.73528" lon="4.64914">
        <ele>408.72</ele>
        <time>2018-09-09T07:55:37Z</time>
      </trkpt>
      <trkpt lat="45.73553" lon="4.64884">
        <ele>411.99</ele>
        <time>2018-09-09T07:55:49Z</time>
      </trkpt>
      <trkpt lat="45.73605" lon="4.64805">
        <ele>417.66</ele>
        <time>2018-09-09T07:56:17Z</time>
      </trkpt>
      <trkpt lat="45.73627" lon="4.6475">
        <ele>417.26</ele>
        <time>2018-09-09T07:56:25Z</time>
      </trkpt>
      <trkpt lat="45.7363" lon="4.64732">
        <ele>416.98</ele>
        <time>2018-09-09T07:56:27Z</time>
      </trkpt>
      <trkpt lat="45.7363" lon="4.64714">
        <ele>416.71</ele>
        <time>2018-09-09T07:56:29Z</time>
      </trkpt>
      <trkpt lat="45.73619" lon="4.64601">
        <ele>415.86</ele>
        <time>2018-09-09T07:56:42Z</time>
      </trkpt>
      <trkpt lat="45.73614" lon="4.64566">
        <ele>416.35</ele>
        <time>2018-09-09T07:56:47Z</time>
      </trkpt>
      <trkpt lat="45.73614" lon="4.64558">
        <ele>416.41</ele>
        <time>2018-09-09T07:56:48Z</time>
      </trkpt>
      <trkpt lat="45.73619" lon="4.64543">
        <ele>416.52</ele>
        <time>2018-09-09T07:56:50Z</time>
      </trkpt>
      <trkpt lat="45.73638" lon="4.64505">
        <ele>417.25</ele>
        <time>2018-09-09T07:56:57Z</time>
      </trkpt>
      <trkpt lat="45.73668" lon="4.64451">
        <ele>419.84</ele>
        <time>2018-09-09T07:57:10Z</time>
      </trkpt>
      <trkpt lat="45.73673" lon="4.6442">
        <ele>420.61</ele>
        <time>2018-09-09T07:57:17Z</time>
      </trkpt>
      <trkpt lat="45.73623" lon="4.64345">
        <ele>432.2</ele>
        <time>2018-09-09T07:58:03Z</time>
      </trkpt>
      <trkpt lat="45.73611" lon="4.64323">
        <ele>435.37</ele>
        <time>2018-09-09T07:58:17Z</time>
      </trkpt>
      <trkpt lat="45.73589" lon="4.64286">
        <ele>439.97</ele>
        <time>2018-09-09T07:58:41Z</time>
      </trkpt>
      <trkpt lat="45.73562" lon="4.64248">
        <ele>446.7</ele>
        <time>2018-09-09T07:59:11Z</time>
      </trkpt>
      <trkpt lat="45.73555" lon="4.64235">
        <ele>448.46</ele>
        <time>2018-09-09T07:59:22Z</time>
      </trkpt>
      <trkpt lat="45.7353" lon="4.64197">
        <ele>455.96</ele>
        <time>2018-09-09T07:59:53Z</time>
      </trkpt>
      <trkpt lat="45.73518" lon="4.64176">
        <ele>460.58</ele>
        <time>2018-09-09T08:00:11Z</time>
      </trkpt>
      <trkpt lat="45.73509" lon="4.64156">
        <ele>463.91</ele>
        <time>2018-09-09T08:00:27Z</time>
      </trkpt>
      <trkpt lat="45.73484" lon="4.64121">
        <ele>469.51</ele>
        <time>2018-09-09T08:00:55Z</time>
      </trkpt>
      <trkpt lat="45.73469" lon="4.64105">
        <ele>472.59</ele>
        <time>2018-09-09T08:01:08Z</time>
      </trkpt>
      <trkpt lat="45.73429" lon="4.64036">
        <ele>481.03</ele>
        <time>2018-09-09T08:01:51Z</time>
      </trkpt>
      <trkpt lat="45.73421" lon="4.64015">
        <ele>484.6</ele>
        <time>2018-09-09T08:02:02Z</time>
      </trkpt>
      <trkpt lat="45.73412" lon="4.63989">
        <ele>487.18</ele>
        <time>2018-09-09T08:02:16Z</time>
      </trkpt>
      <trkpt lat="45.7339" lon="4.63952">
        <ele>491.37</ele>
        <time>2018-09-09T08:02:42Z</time>
      </trkpt>
      <trkpt lat="45.73384" lon="4.63937">
        <ele>493.41</ele>
        <time>2018-09-09T08:02:50Z</time>
      </trkpt>
      <trkpt lat="45.73375" lon="4.63888">
        <ele>498.81</ele>
        <time>2018-09-09T08:03:16Z</time>
      </trkpt>
      <trkpt lat="45.73372" lon="4.63882">
        <ele>499.5</ele>
        <time>2018-09-09T08:03:19Z</time>
      </trkpt>
      <trkpt lat="45.73361" lon="4.63847">
        <ele>502.76</ele>
        <time>2018-09-09T08:03:36Z</time>
      </trkpt>
      <trkpt lat="45.73355" lon="4.63815">
        <ele>506.33</ele>
        <time>2018-09-09T08:03:54Z</time>
      </trkpt>
      <trkpt lat="45.73348" lon="4.63791">
        <ele>507.82</ele>
        <time>2018-09-09T08:04:03Z</time>
      </trkpt>
      <trkpt lat="45.73348" lon="4.63776">
        <ele>509.25</ele>
        <time>2018-09-09T08:04:10Z</time>
      </trkpt>
      <trkpt lat="45.73343" lon="4.63752">
        <ele>511.51</ele>
        <time>2018-09-09T08:04:21Z</time>
      </trkpt>
      <trkpt lat="45.73336" lon="4.63733">
        <ele>513.54</ele>
        <time>2018-09-09T08:04:30Z</time>
      </trkpt>
      <trkpt lat="45.73332" lon="4.63715">
        <ele>515.49</ele>
        <time>2018-09-09T08:04:39Z</time>
      </trkpt>
      <trkpt lat="45.73325" lon="4.63694">
        <ele>516.8</ele>
        <time>2018-09-09T08:04:48Z</time>
      </trkpt>
      <trkpt lat="45.7332" lon="4.63668">
        <ele>518.76</ele>
        <time>2018-09-09T08:04:57Z</time>
      </trkpt>
      <trkpt lat="45.73316" lon="4.63636">
        <ele>520.82</ele>
        <time>2018-09-09T08:05:07Z</time>
      </trkpt>
      <trkpt lat="45.73318" lon="4.63612">
        <ele>522.12</ele>
        <time>2018-09-09T08:05:15Z</time>
      </trkpt>
      <trkpt lat="45.73313" lon="4.63573">
        <ele>523.19</ele>
        <time>2018-09-09T08:05:25Z</time>
      </trkpt>
      <trkpt lat="45.73305" lon="4.63528">
        <ele>525.75</ele>
        <time>2018-09-09T08:05:41Z</time>
      </trkpt>
      <trkpt lat="45.73303" lon="4.63482">
        <ele>530.86</ele>
        <time>2018-09-09T08:05:58Z</time>
      </trkpt>
      <trkpt lat="45.73298" lon="4.63461">
        <ele>532.19</ele>
        <time>2018-09-09T08:06:03Z</time>
      </trkpt>
      <trkpt lat="45.733" lon="4.63432">
        <ele>534.75</ele>
        <time>2018-09-09T08:06:13Z</time>
      </trkpt>
      <trkpt lat="45.733" lon="4.63405">
        <ele>535.46</ele>
        <time>2018-09-09T08:06:22Z</time>
      </trkpt>
      <trkpt lat="45.73288" lon="4.63355">
        <ele>538.7</ele>
        <time>2018-09-09T08:06:42Z</time>
      </trkpt>
      <trkpt lat="45.7328" lon="4.63289">
        <ele>545.91</ele>
        <time>2018-09-09T08:07:11Z</time>
      </trkpt>
      <trkpt lat="45.73282" lon="4.63278">
        <ele>547.29</ele>
        <time>2018-09-09T08:07:17Z</time>
      </trkpt>
      <trkpt lat="45.733" lon="4.6326">
        <ele>549.75</ele>
        <time>2018-09-09T08:07:33Z</time>
      </trkpt>
      <trkpt lat="45.73309" lon="4.63255">
        <ele>551.13</ele>
        <time>2018-09-09T08:07:40Z</time>
      </trkpt>
      <trkpt lat="45.73327" lon="4.63258">
        <ele>554.42</ele>
        <time>2018-09-09T08:07:55Z</time>
      </trkpt>
      <trkpt lat="45.73339" lon="4.63258">
        <ele>556.37</ele>
        <time>2018-09-09T08:08:05Z</time>
      </trkpt>
      <trkpt lat="45.73351" lon="4.63251">
        <ele>558.18</ele>
        <time>2018-09-09T08:08:14Z</time>
      </trkpt>
      <trkpt lat="45.73356" lon="4.63243">
        <ele>559.16</ele>
        <time>2018-09-09T08:08:19Z</time>
      </trkpt>
      <trkpt lat="45.73359" lon="4.63225">
        <ele>561.93</ele>
        <time>2018-09-09T08:08:31Z</time>
      </trkpt>
      <trkpt lat="45.73345" lon="4.63199">
        <ele>566.71</ele>
        <time>2018-09-09T08:08:50Z</time>
      </trkpt>
      <trkpt lat="45.7334" lon="4.63179">
        <ele>568.91</ele>
        <time>2018-09-09T08:09:03Z</time>
      </trkpt>
      <trkpt lat="45.73336" lon="4.63173">
        <ele>569.61</ele>
        <time>2018-09-09T08:09:06Z</time>
      </trkpt>
      <trkpt lat="45.73323" lon="4.63162">
        <ele>571.72</ele>
        <time>2018-09-09T08:09:15Z</time>
      </trkpt>
      <trkpt lat="45.73313" lon="4.63158">
        <ele>572.69</ele>
        <time>2018-09-09T08:09:20Z</time>
      </trkpt>
      <trkpt lat="45.73298" lon="4.63156">
        <ele>573.65</ele>
        <time>2018-09-09T08:09:28Z</time>
      </trkpt>
      <trkpt lat="45.73276" lon="4.63149">
        <ele>574.9</ele>
        <time>2018-09-09T08:09:39Z</time>
      </trkpt>
      <trkpt lat="45.73244" lon="4.63126">
        <ele>579.24</ele>
        <time>2018-09-09T08:09:58Z</time>
      </trkpt>
      <trkpt lat="45.73217" lon="4.63111">
        <ele>584.47</ele>
        <time>2018-09-09T08:10:15Z</time>
      </trkpt>
      <trkpt lat="45.73195" lon="4.63086">
        <ele>590.02</ele>
        <time>2018-09-09T08:10:30Z</time>
      </trkpt>
      <trkpt lat="45.73181" lon="4.63066">
        <ele>593.17</ele>
        <time>2018-09-09T08:10:41Z</time>
      </trkpt>
      <trkpt lat="45.73168" lon="4.6304">
        <ele>595.39</ele>
        <time>2018-09-09T08:10:51Z</time>
      </trkpt>
      <trkpt lat="45.73162" lon="4.6301">
        <ele>597.28</ele>
        <time>2018-09-09T08:11:01Z</time>
      </trkpt>
      <trkpt lat="45.73167" lon="4.62906">
        <ele>599.74</ele>
        <time>2018-09-09T08:11:35Z</time>
      </trkpt>
      <trkpt lat="45.7317" lon="4.62873">
        <ele>600.73</ele>
        <time>2018-09-09T08:11:45Z</time>
      </trkpt>
      <trkpt lat="45.73176" lon="4.62845">
        <ele>601.22</ele>
        <time>2018-09-09T08:11:53Z</time>
      </trkpt>
      <trkpt lat="45.73191" lon="4.62816">
        <ele>602.68</ele>
        <time>2018-09-09T08:12:04Z</time>
      </trkpt>
      <trkpt lat="45.73202" lon="4.62787">
        <ele>604.75</ele>
        <time>2018-09-09T08:12:14Z</time>
      </trkpt>
      <trkpt lat="45.73208" lon="4.62758">
        <ele>606.41</ele>
        <time>2018-09-09T08:12:24Z</time>
      </trkpt>
      <trkpt lat="45.73213" lon="4.62711">
        <ele>607.91</ele>
        <time>2018-09-09T08:12:36Z</time>
      </trkpt>
      <trkpt lat="45.7324" lon="4.62664">
        <ele>606.52</ele>
        <time>2018-09-09T08:12:45Z</time>
      </trkpt>
      <trkpt lat="45.73266" lon="4.62616">
        <ele>605.25</ele>
        <time>2018-09-09T08:12:53Z</time>
      </trkpt>
      <trkpt lat="45.73281" lon="4.62584">
        <ele>604.42</ele>
        <time>2018-09-09T08:12:58Z</time>
      </trkpt>
      <trkpt lat="45.73307" lon="4.62543">
        <ele>603.95</ele>
        <time>2018-09-09T08:13:05Z</time>
      </trkpt>
      <trkpt lat="45.73316" lon="4.62535">
        <ele>603.8</ele>
        <time>2018-09-09T08:13:07Z</time>
      </trkpt>
      <trkpt lat="45.73339" lon="4.62519">
        <ele>604.9</ele>
        <time>2018-09-09T08:13:15Z</time>
      </trkpt>
      <trkpt lat="45.73351" lon="4.62503">
        <ele>608.1</ele>
        <time>2018-09-09T08:13:26Z</time>
      </trkpt>
      <trkpt lat="45.73353" lon="4.62491">
        <ele>610.21</ele>
        <time>2018-09-09T08:13:32Z</time>
      </trkpt>
      <trkpt lat="45.73349" lon="4.62465">
        <ele>613.36</ele>
        <time>2018-09-09T08:13:45Z</time>
      </trkpt>
      <trkpt lat="45.73344" lon="4.62442">
        <ele>616.06</ele>
        <time>2018-09-09T08:13:58Z</time>
      </trkpt>
      <trkpt lat="45.73338" lon="4.62426">
        <ele>619.14</ele>
        <time>2018-09-09T08:14:10Z</time>
      </trkpt>
      <trkpt lat="45.73337" lon="4.62411">
        <ele>621.23</ele>
        <time>2018-09-09T08:14:20Z</time>
      </trkpt>
      <trkpt lat="45.73341" lon="4.62368">
        <ele>626.67</ele>
        <time>2018-09-09T08:14:46Z</time>
      </trkpt>
      <trkpt lat="45.73345" lon="4.62351">
        <ele>629.69</ele>
        <time>2018-09-09T08:14:57Z</time>
      </trkpt>
      <trkpt lat="45.73349" lon="4.6234">
        <ele>631.92</ele>
        <time>2018-09-09T08:15:06Z</time>
      </trkpt>
      <trkpt lat="45.73362" lon="4.62322">
        <ele>635.63</ele>
        <time>2018-09-09T08:15:23Z</time>
      </trkpt>
      <trkpt lat="45.73365" lon="4.62314">
        <ele>636.74</ele>
        <time>2018-09-09T08:15:28Z</time>
      </trkpt>
      <trkpt lat="45.73369" lon="4.62291">
        <ele>640.18</ele>
        <time>2018-09-09T08:15:42Z</time>
      </trkpt>
      <trkpt lat="45.73369" lon="4.62271">
        <ele>643.14</ele>
        <time>2018-09-09T08:15:54Z</time>
      </trkpt>
      <trkpt lat="45.73368" lon="4.62254">
        <ele>644.79</ele>
        <time>2018-09-09T08:16:03Z</time>
      </trkpt>
      <trkpt lat="45.73385" lon="4.62205">
        <ele>647.03</ele>
        <time>2018-09-09T08:16:26Z</time>
      </trkpt>
      <trkpt lat="45.73391" lon="4.62194">
        <ele>646.95</ele>
        <time>2018-09-09T08:16:31Z</time>
      </trkpt>
      <trkpt lat="45.73399" lon="4.62151">
        <ele>647.38</ele>
        <time>2018-09-09T08:16:42Z</time>
      </trkpt>
      <trkpt lat="45.73403" lon="4.62115">
        <ele>649.18</ele>
        <time>2018-09-09T08:16:54Z</time>
      </trkpt>
      <trkpt lat="45.73405" lon="4.62066">
        <ele>651.81</ele>
        <time>2018-09-09T08:17:09Z</time>
      </trkpt>
      <trkpt lat="45.73401" lon="4.61969">
        <ele>656.23</ele>
        <time>2018-09-09T08:17:40Z</time>
      </trkpt>
      <trkpt lat="45.73387" lon="4.6194">
        <ele>657</ele>
        <time>2018-09-09T08:17:49Z</time>
      </trkpt>
      <trkpt lat="45.73371" lon="4.61923">
        <ele>656.3</ele>
        <time>2018-09-09T08:17:53Z</time>
      </trkpt>
      <trkpt lat="45.73356" lon="4.61904">
        <ele>655.73</ele>
        <time>2018-09-09T08:17:57Z</time>
      </trkpt>
      <trkpt lat="45.73333" lon="4.61852">
        <ele>654.46</ele>
        <time>2018-09-09T08:18:05Z</time>
      </trkpt>
      <trkpt lat="45.73318" lon="4.61791">
        <ele>653.63</ele>
        <time>2018-09-09T08:18:15Z</time>
      </trkpt>
      <trkpt lat="45.73312" lon="4.61756">
        <ele>653.44</ele>
        <time>2018-09-09T08:18:20Z</time>
      </trkpt>
      <trkpt lat="45.73311" lon="4.6174">
        <ele>653.28</ele>
        <time>2018-09-09T08:18:22Z</time>
      </trkpt>
      <trkpt lat="45.7332" lon="4.61696">
        <ele>651.57</ele>
        <time>2018-09-09T08:18:29Z</time>
      </trkpt>
      <trkpt lat="45.73336" lon="4.6167">
        <ele>651.39</ele>
        <time>2018-09-09T08:18:35Z</time>
      </trkpt>
      <trkpt lat="45.73354" lon="4.61635">
        <ele>651.94</ele>
        <time>2018-09-09T08:18:43Z</time>
      </trkpt>
      <trkpt lat="45.73368" lon="4.61614">
        <ele>653.1</ele>
        <time>2018-09-09T08:18:49Z</time>
      </trkpt>
      <trkpt lat="45.73377" lon="4.61598">
        <ele>653.91</ele>
        <time>2018-09-09T08:18:53Z</time>
      </trkpt>
      <trkpt lat="45.73387" lon="4.6157">
        <ele>654.41</ele>
        <time>2018-09-09T08:18:59Z</time>
      </trkpt>
      <trkpt lat="45.73432" lon="4.61461">
        <ele>653.64</ele>
        <time>2018-09-09T08:19:20Z</time>
      </trkpt>
      <trkpt lat="45.73426" lon="4.61438">
        <ele>653.4</ele>
        <time>2018-09-09T08:19:25Z</time>
      </trkpt>
      <trkpt lat="45.73392" lon="4.61418">
        <ele>652.37</ele>
        <time>2018-09-09T08:19:33Z</time>
      </trkpt>
      <trkpt lat="45.73354" lon="4.61405">
        <ele>651.44</ele>
        <time>2018-09-09T08:19:41Z</time>
      </trkpt>
      <trkpt lat="45.73318" lon="4.6139">
        <ele>650.85</ele>
        <time>2018-09-09T08:19:49Z</time>
      </trkpt>
      <trkpt lat="45.73296" lon="4.61385">
        <ele>653.75</ele>
        <time>2018-09-09T08:19:58Z</time>
      </trkpt>
      <trkpt lat="45.73272" lon="4.61366">
        <ele>656.55</ele>
        <time>2018-09-09T08:20:22Z</time>
      </trkpt>
      <trkpt lat="45.73263" lon="4.61353">
        <ele>656.38</ele>
        <time>2018-09-09T08:20:27Z</time>
      </trkpt>
      <trkpt lat="45.73244" lon="4.61311">
        <ele>655.62</ele>
        <time>2018-09-09T08:20:35Z</time>
      </trkpt>
      <trkpt lat="45.73242" lon="4.613">
        <ele>655.64</ele>
        <time>2018-09-09T08:20:37Z</time>
      </trkpt>
      <trkpt lat="45.73241" lon="4.61267">
        <ele>655.87</ele>
        <time>2018-09-09T08:20:42Z</time>
      </trkpt>
      <trkpt lat="45.73243" lon="4.61199">
        <ele>656.96</ele>
        <time>2018-09-09T08:20:54Z</time>
      </trkpt>
      <trkpt lat="45.73237" lon="4.61155">
        <ele>657.2</ele>
        <time>2018-09-09T08:21:01Z</time>
      </trkpt>
      <trkpt lat="45.73222" lon="4.61111">
        <ele>657.6</ele>
        <time>2018-09-09T08:21:09Z</time>
      </trkpt>
      <trkpt lat="45.73212" lon="4.61094">
        <ele>658.02</ele>
        <time>2018-09-09T08:21:14Z</time>
      </trkpt>
      <trkpt lat="45.73188" lon="4.61088">
        <ele>657.57</ele>
        <time>2018-09-09T08:21:19Z</time>
      </trkpt>
      <trkpt lat="45.73157" lon="4.61111">
        <ele>656.19</ele>
        <time>2018-09-09T08:21:28Z</time>
      </trkpt>
      <trkpt lat="45.73094" lon="4.61144">
        <ele>656.29</ele>
        <time>2018-09-09T08:21:43Z</time>
      </trkpt>
      <trkpt lat="45.73086" lon="4.61151">
        <ele>656.21</ele>
        <time>2018-09-09T08:21:45Z</time>
      </trkpt>
      <trkpt lat="45.73034" lon="4.61213">
        <ele>654.97</ele>
        <time>2018-09-09T08:21:57Z</time>
      </trkpt>
      <trkpt lat="45.73" lon="4.61232">
        <ele>654.13</ele>
        <time>2018-09-09T08:22:03Z</time>
      </trkpt>
      <trkpt lat="45.72958" lon="4.61238">
        <ele>656.12</ele>
        <time>2018-09-09T08:22:14Z</time>
      </trkpt>
      <trkpt lat="45.72926" lon="4.61231">
        <ele>658.6</ele>
        <time>2018-09-09T08:22:24Z</time>
      </trkpt>
      <trkpt lat="45.72874" lon="4.61195">
        <ele>659.82</ele>
        <time>2018-09-09T08:22:41Z</time>
      </trkpt>
      <trkpt lat="45.72839" lon="4.61176">
        <ele>660.35</ele>
        <time>2018-09-09T08:22:51Z</time>
      </trkpt>
      <trkpt lat="45.72808" lon="4.61173">
        <ele>659.99</ele>
        <time>2018-09-09T08:22:56Z</time>
      </trkpt>
      <trkpt lat="45.72801" lon="4.61175">
        <ele>659.78</ele>
        <time>2018-09-09T08:22:57Z</time>
      </trkpt>
      <trkpt lat="45.72788" lon="4.61181">
        <ele>659.36</ele>
        <time>2018-09-09T08:22:59Z</time>
      </trkpt>
      <trkpt lat="45.72759" lon="4.61188">
        <ele>659.03</ele>
        <time>2018-09-09T08:23:04Z</time>
      </trkpt>
      <trkpt lat="45.72713" lon="4.61212">
        <ele>659.94</ele>
        <time>2018-09-09T08:23:15Z</time>
      </trkpt>
      <trkpt lat="45.72699" lon="4.61218">
        <ele>659.96</ele>
        <time>2018-09-09T08:23:18Z</time>
      </trkpt>
      <trkpt lat="45.72661" lon="4.61229">
        <ele>659.91</ele>
        <time>2018-09-09T08:23:25Z</time>
      </trkpt>
      <trkpt lat="45.7264" lon="4.61225">
        <ele>659.23</ele>
        <time>2018-09-09T08:23:28Z</time>
      </trkpt>
      <trkpt lat="45.72603" lon="4.61212">
        <ele>658.07</ele>
        <time>2018-09-09T08:23:35Z</time>
      </trkpt>
      <trkpt lat="45.72593" lon="4.61214">
        <ele>658.45</ele>
        <time>2018-09-09T08:23:37Z</time>
      </trkpt>
      <trkpt lat="45.72553" lon="4.61241">
        <ele>660.81</ele>
        <time>2018-09-09T08:23:48Z</time>
      </trkpt>
      <trkpt lat="45.72546" lon="4.61256">
        <ele>661.47</ele>
        <time>2018-09-09T08:23:51Z</time>
      </trkpt>
      <trkpt lat="45.72534" lon="4.61273">
        <ele>661.71</ele>
        <time>2018-09-09T08:23:54Z</time>
      </trkpt>
      <trkpt lat="45.72514" lon="4.61289">
        <ele>661.71</ele>
        <time>2018-09-09T08:23:58Z</time>
      </trkpt>
      <trkpt lat="45.72499" lon="4.61296">
        <ele>661.67</ele>
        <time>2018-09-09T08:24:01Z</time>
      </trkpt>
      <trkpt lat="45.72448" lon="4.61309">
        <ele>662.35</ele>
        <time>2018-09-09T08:24:11Z</time>
      </trkpt>
      <trkpt lat="45.72437" lon="4.61295">
        <ele>662.6</ele>
        <time>2018-09-09T08:24:16Z</time>
      </trkpt>
      <trkpt lat="45.72442" lon="4.61256">
        <ele>665.21</ele>
        <time>2018-09-09T08:24:26Z</time>
      </trkpt>
      <trkpt lat="45.72437" lon="4.61231">
        <ele>667.28</ele>
        <time>2018-09-09T08:24:35Z</time>
      </trkpt>
      <trkpt lat="45.72437" lon="4.61219">
        <ele>667.57</ele>
        <time>2018-09-09T08:24:38Z</time>
      </trkpt>
      <trkpt lat="45.72448" lon="4.61141">
        <ele>665.83</ele>
        <time>2018-09-09T08:24:49Z</time>
      </trkpt>
      <trkpt lat="45.7245" lon="4.61063">
        <ele>665.23</ele>
        <time>2018-09-09T08:25:00Z</time>
      </trkpt>
      <trkpt lat="45.72456" lon="4.61002">
        <ele>665.63</ele>
        <time>2018-09-09T08:25:10Z</time>
      </trkpt>
      <trkpt lat="45.72464" lon="4.60951">
        <ele>665.95</ele>
        <time>2018-09-09T08:25:18Z</time>
      </trkpt>
      <trkpt lat="45.72467" lon="4.60905">
        <ele>666.33</ele>
        <time>2018-09-09T08:25:25Z</time>
      </trkpt>
      <trkpt lat="45.72483" lon="4.60833">
        <ele>666.12</ele>
        <time>2018-09-09T08:25:37Z</time>
      </trkpt>
      <trkpt lat="45.72495" lon="4.60746">
        <ele>666.35</ele>
        <time>2018-09-09T08:25:52Z</time>
      </trkpt>
      <trkpt lat="45.72491" lon="4.60734">
        <ele>666.3</ele>
        <time>2018-09-09T08:25:54Z</time>
      </trkpt>
      <trkpt lat="45.7246" lon="4.60718">
        <ele>666.49</ele>
        <time>2018-09-09T08:26:01Z</time>
      </trkpt>
      <trkpt lat="45.72434" lon="4.60714">
        <ele>666.78</ele>
        <time>2018-09-09T08:26:06Z</time>
      </trkpt>
      <trkpt lat="45.72425" lon="4.60716">
        <ele>666.84</ele>
        <time>2018-09-09T08:26:08Z</time>
      </trkpt>
      <trkpt lat="45.72361" lon="4.60719">
        <ele>665.36</ele>
        <time>2018-09-09T08:26:18Z</time>
      </trkpt>
      <trkpt lat="45.72343" lon="4.60717">
        <ele>664.73</ele>
        <time>2018-09-09T08:26:21Z</time>
      </trkpt>
      <trkpt lat="45.72324" lon="4.60711">
        <ele>664.4</ele>
        <time>2018-09-09T08:26:24Z</time>
      </trkpt>
      <trkpt lat="45.72263" lon="4.60672">
        <ele>664.02</ele>
        <time>2018-09-09T08:26:37Z</time>
      </trkpt>
      <trkpt lat="45.72242" lon="4.6066">
        <ele>664.2</ele>
        <time>2018-09-09T08:26:41Z</time>
      </trkpt>
      <trkpt lat="45.72202" lon="4.60632">
        <ele>663.94</ele>
        <time>2018-09-09T08:26:50Z</time>
      </trkpt>
      <trkpt lat="45.72178" lon="4.60602">
        <ele>665.72</ele>
        <time>2018-09-09T08:27:00Z</time>
      </trkpt>
      <trkpt lat="45.72165" lon="4.60559">
        <ele>666.69</ele>
        <time>2018-09-09T08:27:09Z</time>
      </trkpt>
      <trkpt lat="45.72161" lon="4.60526">
        <ele>667.2</ele>
        <time>2018-09-09T08:27:16Z</time>
      </trkpt>
      <trkpt lat="45.72149" lon="4.60484">
        <ele>667.91</ele>
        <time>2018-09-09T08:27:24Z</time>
      </trkpt>
      <trkpt lat="45.7212" lon="4.60404">
        <ele>668.87</ele>
        <time>2018-09-09T08:27:39Z</time>
      </trkpt>
      <trkpt lat="45.72123" lon="4.6039">
        <ele>668.61</ele>
        <time>2018-09-09T08:27:41Z</time>
      </trkpt>
      <trkpt lat="45.72146" lon="4.6031">
        <ele>667.98</ele>
        <time>2018-09-09T08:27:53Z</time>
      </trkpt>
      <trkpt lat="45.72132" lon="4.60264">
        <ele>667.62</ele>
        <time>2018-09-09T08:27:59Z</time>
      </trkpt>
      <trkpt lat="45.72116" lon="4.60224">
        <ele>667.41</ele>
        <time>2018-09-09T08:28:04Z</time>
      </trkpt>
      <trkpt lat="45.72112" lon="4.60207">
        <ele>667.32</ele>
        <time>2018-09-09T08:28:06Z</time>
      </trkpt>
      <trkpt lat="45.72104" lon="4.60163">
        <ele>667.13</ele>
        <time>2018-09-09T08:28:11Z</time>
      </trkpt>
      <trkpt lat="45.72097" lon="4.60148">
        <ele>667.14</ele>
        <time>2018-09-09T08:28:13Z</time>
      </trkpt>
      <trkpt lat="45.72075" lon="4.60133">
        <ele>667.39</ele>
        <time>2018-09-09T08:28:17Z</time>
      </trkpt>
      <trkpt lat="45.72039" lon="4.60124">
        <ele>667.61</ele>
        <time>2018-09-09T08:28:24Z</time>
      </trkpt>
      <trkpt lat="45.71979" lon="4.60119">
        <ele>668.51</ele>
        <time>2018-09-09T08:28:37Z</time>
      </trkpt>
      <trkpt lat="45.71949" lon="4.60115">
        <ele>669.57</ele>
        <time>2018-09-09T08:28:43Z</time>
      </trkpt>
      <trkpt lat="45.71926" lon="4.60101">
        <ele>669.28</ele>
        <time>2018-09-09T08:28:48Z</time>
      </trkpt>
      <trkpt lat="45.71912" lon="4.60072">
        <ele>669.15</ele>
        <time>2018-09-09T08:28:54Z</time>
      </trkpt>
      <trkpt lat="45.71907" lon="4.60044">
        <ele>669.26</ele>
        <time>2018-09-09T08:29:01Z</time>
      </trkpt>
      <trkpt lat="45.71903" lon="4.59998">
        <ele>669.08</ele>
        <time>2018-09-09T08:29:08Z</time>
      </trkpt>
      <trkpt lat="45.71903" lon="4.59971">
        <ele>669.07</ele>
        <time>2018-09-09T08:29:12Z</time>
      </trkpt>
      <trkpt lat="45.71906" lon="4.5993">
        <ele>669.77</ele>
        <time>2018-09-09T08:29:19Z</time>
      </trkpt>
      <trkpt lat="45.71911" lon="4.59896">
        <ele>669.99</ele>
        <time>2018-09-09T08:29:24Z</time>
      </trkpt>
      <trkpt lat="45.71921" lon="4.59848">
        <ele>669.88</ele>
        <time>2018-09-09T08:29:31Z</time>
      </trkpt>
      <trkpt lat="45.71924" lon="4.59797">
        <ele>671.06</ele>
        <time>2018-09-09T08:29:39Z</time>
      </trkpt>
      <trkpt lat="45.71921" lon="4.59766">
        <ele>671.28</ele>
        <time>2018-09-09T08:29:43Z</time>
      </trkpt>
      <trkpt lat="45.7191" lon="4.59713">
        <ele>670.39</ele>
        <time>2018-09-09T08:29:49Z</time>
      </trkpt>
      <trkpt lat="45.71902" lon="4.59691">
        <ele>669.91</ele>
        <time>2018-09-09T08:29:52Z</time>
      </trkpt>
      <trkpt lat="45.71898" lon="4.59685">
        <ele>669.83</ele>
        <time>2018-09-09T08:29:53Z</time>
      </trkpt>
      <trkpt lat="45.71884" lon="4.59673">
        <ele>669.71</ele>
        <time>2018-09-09T08:29:56Z</time>
      </trkpt>
      <trkpt lat="45.7188" lon="4.5967">
        <ele>669.71</ele>
        <time>2018-09-09T08:29:57Z</time>
      </trkpt>
      <trkpt lat="45.7185" lon="4.59669">
        <ele>669.99</ele>
        <time>2018-09-09T08:30:04Z</time>
      </trkpt>
      <trkpt lat="45.71841" lon="4.59672">
        <ele>670.16</ele>
        <time>2018-09-09T08:30:06Z</time>
      </trkpt>
      <trkpt lat="45.71828" lon="4.59673">
        <ele>670.55</ele>
        <time>2018-09-09T08:30:11Z</time>
      </trkpt>
      <trkpt lat="45.71797" lon="4.59682">
        <ele>672.33</ele>
        <time>2018-09-09T08:30:21Z</time>
      </trkpt>
      <trkpt lat="45.71759" lon="4.59698">
        <ele>673.01</ele>
        <time>2018-09-09T08:30:30Z</time>
      </trkpt>
      <trkpt lat="45.71737" lon="4.59711">
        <ele>673.31</ele>
        <time>2018-09-09T08:30:35Z</time>
      </trkpt>
      <trkpt lat="45.71695" lon="4.59717">
        <ele>673.27</ele>
        <time>2018-09-09T08:30:43Z</time>
      </trkpt>
      <trkpt lat="45.71672" lon="4.59726">
        <ele>673.03</ele>
        <time>2018-09-09T08:30:47Z</time>
      </trkpt>
      <trkpt lat="45.71636" lon="4.59746">
        <ele>673.03</ele>
        <time>2018-09-09T08:30:55Z</time>
      </trkpt>
      <trkpt lat="45.71598" lon="4.59774">
        <ele>675.09</ele>
        <time>2018-09-09T08:31:05Z</time>
      </trkpt>
      <trkpt lat="45.71583" lon="4.5978">
        <ele>674.94</ele>
        <time>2018-09-09T08:31:08Z</time>
      </trkpt>
      <trkpt lat="45.7156" lon="4.59794">
        <ele>674.63</ele>
        <time>2018-09-09T08:31:13Z</time>
      </trkpt>
      <trkpt lat="45.71549" lon="4.59798">
        <ele>674.42</ele>
        <time>2018-09-09T08:31:15Z</time>
      </trkpt>
      <trkpt lat="45.71538" lon="4.59799">
        <ele>674.09</ele>
        <time>2018-09-09T08:31:17Z</time>
      </trkpt>
      <trkpt lat="45.715" lon="4.59772">
        <ele>672.81</ele>
        <time>2018-09-09T08:31:25Z</time>
      </trkpt>
      <trkpt lat="45.71458" lon="4.59718">
        <ele>673.05</ele>
        <time>2018-09-09T08:31:38Z</time>
      </trkpt>
      <trkpt lat="45.71434" lon="4.59661">
        <ele>672.87</ele>
        <time>2018-09-09T08:31:47Z</time>
      </trkpt>
      <trkpt lat="45.71431" lon="4.59642">
        <ele>673.04</ele>
        <time>2018-09-09T08:31:50Z</time>
      </trkpt>
      <trkpt lat="45.7143" lon="4.59621">
        <ele>673.27</ele>
        <time>2018-09-09T08:31:53Z</time>
      </trkpt>
      <trkpt lat="45.71432" lon="4.59554">
        <ele>673.8</ele>
        <time>2018-09-09T08:32:02Z</time>
      </trkpt>
      <trkpt lat="45.71435" lon="4.59533">
        <ele>673.73</ele>
        <time>2018-09-09T08:32:05Z</time>
      </trkpt>
      <trkpt lat="45.71436" lon="4.59481">
        <ele>673.8</ele>
        <time>2018-09-09T08:32:12Z</time>
      </trkpt>
      <trkpt lat="45.71435" lon="4.59435">
        <ele>674.1</ele>
        <time>2018-09-09T08:32:19Z</time>
      </trkpt>
      <trkpt lat="45.7143" lon="4.59397">
        <ele>673.73</ele>
        <time>2018-09-09T08:32:23Z</time>
      </trkpt>
      <trkpt lat="45.71429" lon="4.59316">
        <ele>673.89</ele>
        <time>2018-09-09T08:32:32Z</time>
      </trkpt>
      <trkpt lat="45.71433" lon="4.5929">
        <ele>674.95</ele>
        <time>2018-09-09T08:32:36Z</time>
      </trkpt>
      <trkpt lat="45.71436" lon="4.59232">
        <ele>675.71</ele>
        <time>2018-09-09T08:32:44Z</time>
      </trkpt>
      <trkpt lat="45.71432" lon="4.59206">
        <ele>676.31</ele>
        <time>2018-09-09T08:32:48Z</time>
      </trkpt>
      <trkpt lat="45.71424" lon="4.59188">
        <ele>676.54</ele>
        <time>2018-09-09T08:32:51Z</time>
      </trkpt>
      <trkpt lat="45.71412" lon="4.59176">
        <ele>676.68</ele>
        <time>2018-09-09T08:32:54Z</time>
      </trkpt>
      <trkpt lat="45.71397" lon="4.59167">
        <ele>676.68</ele>
        <time>2018-09-09T08:33:00Z</time>
      </trkpt>
      <trkpt lat="45.71376" lon="4.59138">
        <ele>677</ele>
        <time>2018-09-09T08:33:08Z</time>
      </trkpt>
      <trkpt lat="45.71346" lon="4.59122">
        <ele>679.52</ele>
        <time>2018-09-09T08:33:17Z</time>
      </trkpt>
      <trkpt lat="45.71317" lon="4.59123">
        <ele>682.55</ele>
        <time>2018-09-09T08:33:27Z</time>
      </trkpt>
      <trkpt lat="45.71276" lon="4.59137">
        <ele>684.22</ele>
        <time>2018-09-09T08:33:39Z</time>
      </trkpt>
      <trkpt lat="45.71213" lon="4.59169">
        <ele>683.86</ele>
        <time>2018-09-09T08:33:51Z</time>
      </trkpt>
      <trkpt lat="45.71157" lon="4.59201">
        <ele>682.53</ele>
        <time>2018-09-09T08:34:01Z</time>
      </trkpt>
      <trkpt lat="45.71149" lon="4.59208">
        <ele>682.45</ele>
        <time>2018-09-09T08:34:03Z</time>
      </trkpt>
      <trkpt lat="45.71133" lon="4.59229">
        <ele>682.15</ele>
        <time>2018-09-09T08:34:06Z</time>
      </trkpt>
      <trkpt lat="45.71121" lon="4.59241">
        <ele>681.62</ele>
        <time>2018-09-09T08:34:08Z</time>
      </trkpt>
      <trkpt lat="45.71114" lon="4.59242">
        <ele>681.33</ele>
        <time>2018-09-09T08:34:09Z</time>
      </trkpt>
      <trkpt lat="45.71101" lon="4.59235">
        <ele>680.46</ele>
        <time>2018-09-09T08:34:11Z</time>
      </trkpt>
      <trkpt lat="45.71095" lon="4.59228">
        <ele>679.97</ele>
        <time>2018-09-09T08:34:12Z</time>
      </trkpt>
      <trkpt lat="45.71081" lon="4.592">
        <ele>678.56</ele>
        <time>2018-09-09T08:34:15Z</time>
      </trkpt>
      <trkpt lat="45.71074" lon="4.5919">
        <ele>677.94</ele>
        <time>2018-09-09T08:34:16Z</time>
      </trkpt>
      <trkpt lat="45.71056" lon="4.59174">
        <ele>676.21</ele>
        <time>2018-09-09T08:34:18Z</time>
      </trkpt>
      <trkpt lat="45.71029" lon="4.59154">
        <ele>673.13</ele>
        <time>2018-09-09T08:34:21Z</time>
      </trkpt>
      <trkpt lat="45.71013" lon="4.59139">
        <ele>670.76</ele>
        <time>2018-09-09T08:34:23Z</time>
      </trkpt>
      <trkpt lat="45.70891" lon="4.59">
        <ele>673.1</ele>
        <time>2018-09-09T08:34:51Z</time>
      </trkpt>
      <trkpt lat="45.70826" lon="4.5894">
        <ele>679.12</ele>
        <time>2018-09-09T08:35:13Z</time>
      </trkpt>
      <trkpt lat="45.70809" lon="4.58915">
        <ele>680.85</ele>
        <time>2018-09-09T08:35:22Z</time>
      </trkpt>
      <trkpt lat="45.70806" lon="4.58891">
        <ele>681.75</ele>
        <time>2018-09-09T08:35:27Z</time>
      </trkpt>
      <trkpt lat="45.70814" lon="4.58827">
        <ele>684.21</ele>
        <time>2018-09-09T08:35:42Z</time>
      </trkpt>
      <trkpt lat="45.70822" lon="4.58775">
        <ele>686.04</ele>
        <time>2018-09-09T08:35:54Z</time>
      </trkpt>
      <trkpt lat="45.70835" lon="4.58647">
        <ele>690.69</ele>
        <time>2018-09-09T08:36:21Z</time>
      </trkpt>
      <trkpt lat="45.70854" lon="4.58538">
        <ele>694.84</ele>
        <time>2018-09-09T08:36:44Z</time>
      </trkpt>
      <trkpt lat="45.70889" lon="4.58404">
        <ele>699.93</ele>
        <time>2018-09-09T08:37:14Z</time>
      </trkpt>
      <trkpt lat="45.70893" lon="4.58357">
        <ele>701.57</ele>
        <time>2018-09-09T08:37:24Z</time>
      </trkpt>
      <trkpt lat="45.70905" lon="4.58287">
        <ele>703.6</ele>
        <time>2018-09-09T08:37:37Z</time>
      </trkpt>
      <trkpt lat="45.70906" lon="4.58275">
        <ele>703.67</ele>
        <time>2018-09-09T08:37:39Z</time>
      </trkpt>
      <trkpt lat="45.70905" lon="4.58269">
        <ele>703.68</ele>
        <time>2018-09-09T08:37:40Z</time>
      </trkpt>
      <trkpt lat="45.70903" lon="4.58264">
        <ele>703.71</ele>
        <time>2018-09-09T08:37:41Z</time>
      </trkpt>
      <trkpt lat="45.70895" lon="4.58257">
        <ele>703.77</ele>
        <time>2018-09-09T08:37:43Z</time>
      </trkpt>
      <trkpt lat="45.70823" lon="4.58224">
        <ele>703.83</ele>
        <time>2018-09-09T08:37:59Z</time>
      </trkpt>
      <trkpt lat="45.70784" lon="4.58208">
        <ele>703.43</ele>
        <time>2018-09-09T08:38:07Z</time>
      </trkpt>
      <trkpt lat="45.70771" lon="4.58211">
        <ele>703.59</ele>
        <time>2018-09-09T08:38:10Z</time>
      </trkpt>
      <trkpt lat="45.70768" lon="4.58213">
        <ele>703.68</ele>
        <time>2018-09-09T08:38:11Z</time>
      </trkpt>
      <trkpt lat="45.70759" lon="4.5823">
        <ele>704.56</ele>
        <time>2018-09-09T08:38:16Z</time>
      </trkpt>
      <trkpt lat="45.7074" lon="4.58305">
        <ele>707.13</ele>
        <time>2018-09-09T08:38:33Z</time>
      </trkpt>
      <trkpt lat="45.70724" lon="4.58436">
        <ele>708.76</ele>
        <time>2018-09-09T08:38:58Z</time>
      </trkpt>
      <trkpt lat="45.70701" lon="4.58481">
        <ele>710.81</ele>
        <time>2018-09-09T08:39:10Z</time>
      </trkpt>
      <trkpt lat="45.70686" lon="4.58513">
        <ele>714.6</ele>
        <time>2018-09-09T08:39:21Z</time>
      </trkpt>
      <trkpt lat="45.70682" lon="4.58511">
        <ele>715.52</ele>
        <time>2018-09-09T08:39:24Z</time>
      </trkpt>
      <trkpt lat="45.70679" lon="4.585">
        <ele>716.02</ele>
        <time>2018-09-09T08:39:27Z</time>
      </trkpt>
      <trkpt lat="45.70679" lon="4.58459">
        <ele>717.15</ele>
        <time>2018-09-09T08:39:35Z</time>
      </trkpt>
      <trkpt lat="45.70701" lon="4.58274">
        <ele>720.82</ele>
        <time>2018-09-09T08:40:03Z</time>
      </trkpt>
      <trkpt lat="45.70694" lon="4.58209">
        <ele>723.89</ele>
        <time>2018-09-09T08:40:17Z</time>
      </trkpt>
      <trkpt lat="45.7066" lon="4.58078">
        <ele>733.68</ele>
        <time>2018-09-09T08:40:52Z</time>
      </trkpt>
      <trkpt lat="45.70643" lon="4.58031">
        <ele>736.64</ele>
        <time>2018-09-09T08:41:07Z</time>
      </trkpt>
      <trkpt lat="45.7063" lon="4.58">
        <ele>739.69</ele>
        <time>2018-09-09T08:41:18Z</time>
      </trkpt>
      <trkpt lat="45.70599" lon="4.57937">
        <ele>745.75</ele>
        <time>2018-09-09T08:41:42Z</time>
      </trkpt>
      <trkpt lat="45.70578" lon="4.57896">
        <ele>748.78</ele>
        <time>2018-09-09T08:41:57Z</time>
      </trkpt>
      <trkpt lat="45.70524" lon="4.57807">
        <ele>757.34</ele>
        <time>2018-09-09T08:42:32Z</time>
      </trkpt>
      <trkpt lat="45.70505" lon="4.57764">
        <ele>760.43</ele>
        <time>2018-09-09T08:42:46Z</time>
      </trkpt>
      <trkpt lat="45.70487" lon="4.57725">
        <ele>763.52</ele>
        <time>2018-09-09T08:42:59Z</time>
      </trkpt>
      <trkpt lat="45.70454" lon="4.57671">
        <ele>768.88</ele>
        <time>2018-09-09T08:43:21Z</time>
      </trkpt>
      <trkpt lat="45.70441" lon="4.57647">
        <ele>771.46</ele>
        <time>2018-09-09T08:43:32Z</time>
      </trkpt>
      <trkpt lat="45.70408" lon="4.57606">
        <ele>777.52</ele>
        <time>2018-09-09T08:43:55Z</time>
      </trkpt>
      <trkpt lat="45.70399" lon="4.57583">
        <ele>780.53</ele>
        <time>2018-09-09T08:44:06Z</time>
      </trkpt>
      <trkpt lat="45.70395" lon="4.57554">
        <ele>783.47</ele>
        <time>2018-09-09T08:44:18Z</time>
      </trkpt>
      <trkpt lat="45.70382" lon="4.57498">
        <ele>788.15</ele>
        <time>2018-09-09T08:44:41Z</time>
      </trkpt>
      <trkpt lat="45.70374" lon="4.5747">
        <ele>790.76</ele>
        <time>2018-09-09T08:44:51Z</time>
      </trkpt>
      <trkpt lat="45.70371" lon="4.57443">
        <ele>792.57</ele>
        <time>2018-09-09T08:45:00Z</time>
      </trkpt>
      <trkpt lat="45.7037" lon="4.57397">
        <ele>794.85</ele>
        <time>2018-09-09T08:45:13Z</time>
      </trkpt>
      <trkpt lat="45.70373" lon="4.57293">
        <ele>800.39</ele>
        <time>2018-09-09T08:45:45Z</time>
      </trkpt>
      <trkpt lat="45.70373" lon="4.57194">
        <ele>806.7</ele>
        <time>2018-09-09T08:46:18Z</time>
      </trkpt>
      <trkpt lat="45.70371" lon="4.5717">
        <ele>809.11</ele>
        <time>2018-09-09T08:46:27Z</time>
      </trkpt>
      <trkpt lat="45.70359" lon="4.57081">
        <ele>816.44</ele>
        <time>2018-09-09T08:47:00Z</time>
      </trkpt>
      <trkpt lat="45.70352" lon="4.57041">
        <ele>818.52</ele>
        <time>2018-09-09T08:47:12Z</time>
      </trkpt>
      <trkpt lat="45.70353" lon="4.57035">
        <ele>818.94</ele>
        <time>2018-09-09T08:47:14Z</time>
      </trkpt>
      <trkpt lat="45.70352" lon="4.57021">
        <ele>819.98</ele>
        <time>2018-09-09T08:47:19Z</time>
      </trkpt>
      <trkpt lat="45.70344" lon="4.56974">
        <ele>823.06</ele>
        <time>2018-09-09T08:47:34Z</time>
      </trkpt>
      <trkpt lat="45.70334" lon="4.56926">
        <ele>827.93</ele>
        <time>2018-09-09T08:47:54Z</time>
      </trkpt>
      <trkpt lat="45.70329" lon="4.56908">
        <ele>829.09</ele>
        <time>2018-09-09T08:48:00Z</time>
      </trkpt>
      <trkpt lat="45.70321" lon="4.56843">
        <ele>831.2</ele>
        <time>2018-09-09T08:48:17Z</time>
      </trkpt>
      <trkpt lat="45.70289" lon="4.5677">
        <ele>832.53</ele>
        <time>2018-09-09T08:48:32Z</time>
      </trkpt>
      <trkpt lat="45.70284" lon="4.56736">
        <ele>833.87</ele>
        <time>2018-09-09T08:48:40Z</time>
      </trkpt>
      <trkpt lat="45.7027" lon="4.56702">
        <ele>835.45</ele>
        <time>2018-09-09T08:48:48Z</time>
      </trkpt>
      <trkpt lat="45.7025" lon="4.5668">
        <ele>836.17</ele>
        <time>2018-09-09T08:48:56Z</time>
      </trkpt>
      <trkpt lat="45.70221" lon="4.56656">
        <ele>838.95</ele>
        <time>2018-09-09T08:49:10Z</time>
      </trkpt>
      <trkpt lat="45.70215" lon="4.56653">
        <ele>840.08</ele>
        <time>2018-09-09T08:49:14Z</time>
      </trkpt>
      <trkpt lat="45.70202" lon="4.56642">
        <ele>843.25</ele>
        <time>2018-09-09T08:49:24Z</time>
      </trkpt>
      <trkpt lat="45.70191" lon="4.5663">
        <ele>846.27</ele>
        <time>2018-09-09T08:49:32Z</time>
      </trkpt>
      <trkpt lat="45.70175" lon="4.56602">
        <ele>849.74</ele>
        <time>2018-09-09T08:49:48Z</time>
      </trkpt>
      <trkpt lat="45.70164" lon="4.56575">
        <ele>852.02</ele>
        <time>2018-09-09T08:50:00Z</time>
      </trkpt>
      <trkpt lat="45.70153" lon="4.56533">
        <ele>858.53</ele>
        <time>2018-09-09T08:50:23Z</time>
      </trkpt>
      <trkpt lat="45.7015" lon="4.56461">
        <ele>866.08</ele>
        <time>2018-09-09T08:50:58Z</time>
      </trkpt>
      <trkpt lat="45.70147" lon="4.56455">
        <ele>867.11</ele>
        <time>2018-09-09T08:51:23Z</time>
      </trkpt>
      <trkpt lat="45.70151" lon="4.56444">
        <ele>867.27</ele>
        <time>2018-09-09T08:51:40Z</time>
      </trkpt>
      <trkpt lat="45.70156" lon="4.56426">
        <ele>866.73</ele>
        <time>2018-09-09T08:51:44Z</time>
      </trkpt>
      <trkpt lat="45.7018" lon="4.56404">
        <ele>865.43</ele>
        <time>2018-09-09T08:51:49Z</time>
      </trkpt>
      <trkpt lat="45.7019" lon="4.56393">
        <ele>864.81</ele>
        <time>2018-09-09T08:51:51Z</time>
      </trkpt>
      <trkpt lat="45.70202" lon="4.56384">
        <ele>864.25</ele>
        <time>2018-09-09T08:51:53Z</time>
      </trkpt>
      <trkpt lat="45.70224" lon="4.56375">
        <ele>862.96</ele>
        <time>2018-09-09T08:51:57Z</time>
      </trkpt>
      <trkpt lat="45.70261" lon="4.56372">
        <ele>862.12</ele>
        <time>2018-09-09T08:52:04Z</time>
      </trkpt>
      <trkpt lat="45.70282" lon="4.56362">
        <ele>862.1</ele>
        <time>2018-09-09T08:52:08Z</time>
      </trkpt>
      <trkpt lat="45.70338" lon="4.56331">
        <ele>862.59</ele>
        <time>2018-09-09T08:52:18Z</time>
      </trkpt>
      <trkpt lat="45.70365" lon="4.56308">
        <ele>862.72</ele>
        <time>2018-09-09T08:52:23Z</time>
      </trkpt>
      <trkpt lat="45.70401" lon="4.5628">
        <ele>862.22</ele>
        <time>2018-09-09T08:52:31Z</time>
      </trkpt>
      <trkpt lat="45.70418" lon="4.5627">
        <ele>863.26</ele>
        <time>2018-09-09T08:52:37Z</time>
      </trkpt>
      <trkpt lat="45.7042" lon="4.56283">
        <ele>864.4</ele>
        <time>2018-09-09T08:52:43Z</time>
      </trkpt>
      <trkpt lat="45.7042" lon="4.56303">
        <ele>866.19</ele>
        <time>2018-09-09T08:52:49Z</time>
      </trkpt>
      <trkpt lat="45.70422" lon="4.56341">
        <ele>868.33</ele>
        <time>2018-09-09T08:53:01Z</time>
      </trkpt>
      <trkpt lat="45.70422" lon="4.56364">
        <ele>869.42</ele>
        <time>2018-09-09T08:53:08Z</time>
      </trkpt>
      <trkpt lat="45.7043" lon="4.56457">
        <ele>872.79</ele>
        <time>2018-09-09T08:53:31Z</time>
      </trkpt>
      <trkpt lat="45.70432" lon="4.56467">
        <ele>873.04</ele>
        <time>2018-09-09T08:53:34Z</time>
      </trkpt>
      <trkpt lat="45.70436" lon="4.56511">
        <ele>873.86</ele>
        <time>2018-09-09T08:53:45Z</time>
      </trkpt>
      <trkpt lat="45.70435" lon="4.5654">
        <ele>874.51</ele>
        <time>2018-09-09T08:53:53Z</time>
      </trkpt>
      <trkpt lat="45.70437" lon="4.56594">
        <ele>876.53</ele>
        <time>2018-09-09T08:54:07Z</time>
      </trkpt>
      <trkpt lat="45.7045" lon="4.56644">
        <ele>877.07</ele>
        <time>2018-09-09T08:54:16Z</time>
      </trkpt>
      <trkpt lat="45.70497" lon="4.56747">
        <ele>875.49</ele>
        <time>2018-09-09T08:54:35Z</time>
      </trkpt>
      <trkpt lat="45.70512" lon="4.5681">
        <ele>875.51</ele>
        <time>2018-09-09T08:54:49Z</time>
      </trkpt>
      <trkpt lat="45.70517" lon="4.56861">
        <ele>874.03</ele>
        <time>2018-09-09T08:54:55Z</time>
      </trkpt>
      <trkpt lat="45.7052" lon="4.56873">
        <ele>873.24</ele>
        <time>2018-09-09T08:54:57Z</time>
      </trkpt>
      <trkpt lat="45.7053" lon="4.56887">
        <ele>871.89</ele>
        <time>2018-09-09T08:55:00Z</time>
      </trkpt>
      <trkpt lat="45.70542" lon="4.5689">
        <ele>870.57</ele>
        <time>2018-09-09T08:55:03Z</time>
      </trkpt>
      <trkpt lat="45.70569" lon="4.56904">
        <ele>867.85</ele>
        <time>2018-09-09T08:55:09Z</time>
      </trkpt>
      <trkpt lat="45.70584" lon="4.56915">
        <ele>862.12</ele>
        <time>2018-09-09T08:55:19Z</time>
      </trkpt>
      <trkpt lat="45.70589" lon="4.56924">
        <ele>861.27</ele>
        <time>2018-09-09T08:55:33Z</time>
      </trkpt>
      <trkpt lat="45.70633" lon="4.56999">
        <ele>859.27</ele>
        <time>2018-09-09T08:55:48Z</time>
      </trkpt>
      <trkpt lat="45.70652" lon="4.57028">
        <ele>858.2</ele>
        <time>2018-09-09T08:55:52Z</time>
      </trkpt>
      <trkpt lat="45.70681" lon="4.57089">
        <ele>855.97</ele>
        <time>2018-09-09T08:55:59Z</time>
      </trkpt>
      <trkpt lat="45.707" lon="4.57123">
        <ele>854.74</ele>
        <time>2018-09-09T08:56:03Z</time>
      </trkpt>
      <trkpt lat="45.70725" lon="4.57159">
        <ele>852.55</ele>
        <time>2018-09-09T08:56:08Z</time>
      </trkpt>
      <trkpt lat="45.70746" lon="4.57185">
        <ele>849.08</ele>
        <time>2018-09-09T08:56:13Z</time>
      </trkpt>
      <trkpt lat="45.70767" lon="4.57221">
        <ele>845.13</ele>
        <time>2018-09-09T08:56:18Z</time>
      </trkpt>
      <trkpt lat="45.70783" lon="4.57252">
        <ele>840.64</ele>
        <time>2018-09-09T08:56:23Z</time>
      </trkpt>
      <trkpt lat="45.70796" lon="4.57295">
        <ele>835.72</ele>
        <time>2018-09-09T08:56:28Z</time>
      </trkpt>
      <trkpt lat="45.70815" lon="4.57342">
        <ele>828.4</ele>
        <time>2018-09-09T08:56:34Z</time>
      </trkpt>
      <trkpt lat="45.70826" lon="4.57351">
        <ele>825.32</ele>
        <time>2018-09-09T08:56:37Z</time>
      </trkpt>
      <trkpt lat="45.70841" lon="4.57357">
        <ele>821.6</ele>
        <time>2018-09-09T08:56:41Z</time>
      </trkpt>
      <trkpt lat="45.70853" lon="4.57351">
        <ele>818.12</ele>
        <time>2018-09-09T08:56:45Z</time>
      </trkpt>
      <trkpt lat="45.70869" lon="4.57339">
        <ele>814.85</ele>
        <time>2018-09-09T08:56:51Z</time>
      </trkpt>
      <trkpt lat="45.70883" lon="4.57338">
        <ele>812.56</ele>
        <time>2018-09-09T08:56:55Z</time>
      </trkpt>
      <trkpt lat="45.70912" lon="4.57356">
        <ele>807.37</ele>
        <time>2018-09-09T08:57:02Z</time>
      </trkpt>
      <trkpt lat="45.70941" lon="4.57402">
        <ele>800.26</ele>
        <time>2018-09-09T08:57:10Z</time>
      </trkpt>
      <trkpt lat="45.70951" lon="4.57399">
        <ele>795.95</ele>
        <time>2018-09-09T08:57:15Z</time>
      </trkpt>
      <trkpt lat="45.70956" lon="4.57386">
        <ele>793.41</ele>
        <time>2018-09-09T08:57:20Z</time>
      </trkpt>
      <trkpt lat="45.70968" lon="4.57335">
        <ele>791.42</ele>
        <time>2018-09-09T08:57:29Z</time>
      </trkpt>
      <trkpt lat="45.70966" lon="4.57234">
        <ele>789.1</ele>
        <time>2018-09-09T08:57:41Z</time>
      </trkpt>
      <trkpt lat="45.70963" lon="4.57187">
        <ele>787.55</ele>
        <time>2018-09-09T08:57:46Z</time>
      </trkpt>
      <trkpt lat="45.70959" lon="4.57154">
        <ele>786.8</ele>
        <time>2018-09-09T08:57:49Z</time>
      </trkpt>
      <trkpt lat="45.70965" lon="4.57079">
        <ele>784.29</ele>
        <time>2018-09-09T08:57:56Z</time>
      </trkpt>
      <trkpt lat="45.70962" lon="4.57035">
        <ele>779.55</ele>
        <time>2018-09-09T08:58:03Z</time>
      </trkpt>
      <trkpt lat="45.70966" lon="4.57042">
        <ele>778.28</ele>
        <time>2018-09-09T08:58:05Z</time>
      </trkpt>
      <trkpt lat="45.71005" lon="4.57179">
        <ele>771.1</ele>
        <time>2018-09-09T08:58:20Z</time>
      </trkpt>
      <trkpt lat="45.71047" lon="4.57244">
        <ele>766.08</ele>
        <time>2018-09-09T08:58:30Z</time>
      </trkpt>
      <trkpt lat="45.71079" lon="4.57323">
        <ele>761.02</ele>
        <time>2018-09-09T08:58:37Z</time>
      </trkpt>
      <trkpt lat="45.71115" lon="4.57418">
        <ele>755.99</ele>
        <time>2018-09-09T08:58:45Z</time>
      </trkpt>
      <trkpt lat="45.71116" lon="4.57465">
        <ele>752.87</ele>
        <time>2018-09-09T08:58:49Z</time>
      </trkpt>
      <trkpt lat="45.711" lon="4.57503">
        <ele>749.83</ele>
        <time>2018-09-09T08:58:54Z</time>
      </trkpt>
      <trkpt lat="45.71096" lon="4.57509">
        <ele>749.34</ele>
        <time>2018-09-09T08:58:55Z</time>
      </trkpt>
      <trkpt lat="45.71093" lon="4.57539">
        <ele>746.29</ele>
        <time>2018-09-09T08:59:02Z</time>
      </trkpt>
      <trkpt lat="45.71101" lon="4.57561">
        <ele>745.14</ele>
        <time>2018-09-09T08:59:06Z</time>
      </trkpt>
      <trkpt lat="45.71106" lon="4.57587">
        <ele>741.4</ele>
        <time>2018-09-09T08:59:13Z</time>
      </trkpt>
      <trkpt lat="45.7112" lon="4.57574">
        <ele>739.32</ele>
        <time>2018-09-09T08:59:18Z</time>
      </trkpt>
      <trkpt lat="45.71147" lon="4.57573">
        <ele>735.57</ele>
        <time>2018-09-09T08:59:24Z</time>
      </trkpt>
      <trkpt lat="45.71172" lon="4.57609">
        <ele>731.2</ele>
        <time>2018-09-09T08:59:30Z</time>
      </trkpt>
      <trkpt lat="45.71184" lon="4.57644">
        <ele>726.63</ele>
        <time>2018-09-09T08:59:34Z</time>
      </trkpt>
      <trkpt lat="45.71195" lon="4.57683">
        <ele>722.97</ele>
        <time>2018-09-09T08:59:39Z</time>
      </trkpt>
      <trkpt lat="45.7118" lon="4.57704">
        <ele>719.3</ele>
        <time>2018-09-09T08:59:46Z</time>
      </trkpt>
      <trkpt lat="45.71029" lon="4.57858">
        <ele>713.23</ele>
        <time>2018-09-09T09:00:18Z</time>
      </trkpt>
      <trkpt lat="45.70995" lon="4.57891">
        <ele>711.87</ele>
        <time>2018-09-09T09:00:27Z</time>
      </trkpt>
      <trkpt lat="45.70996" lon="4.57907">
        <ele>710.19</ele>
        <time>2018-09-09T09:00:37Z</time>
      </trkpt>
      <trkpt lat="45.70999" lon="4.57911">
        <ele>710.25</ele>
        <time>2018-09-09T09:01:41Z</time>
      </trkpt>
      <trkpt lat="45.70997" lon="4.5791">
        <ele>710.56</ele>
        <time>2018-09-09T09:02:17Z</time>
      </trkpt>
      <trkpt lat="45.70996" lon="4.57912">
        <ele>710.38</ele>
        <time>2018-09-09T09:02:36Z</time>
      </trkpt>
      <trkpt lat="45.70998" lon="4.57929">
        <ele>710.45</ele>
        <time>2018-09-09T09:02:43Z</time>
      </trkpt>
      <trkpt lat="45.70991" lon="4.57967">
        <ele>710.58</ele>
        <time>2018-09-09T09:02:52Z</time>
      </trkpt>
      <trkpt lat="45.7096" lon="4.5804">
        <ele>711.49</ele>
        <time>2018-09-09T09:03:05Z</time>
      </trkpt>
      <trkpt lat="45.70937" lon="4.58116">
        <ele>711.72</ele>
        <time>2018-09-09T09:03:16Z</time>
      </trkpt>
      <trkpt lat="45.70909" lon="4.5822">
        <ele>710.96</ele>
        <time>2018-09-09T09:03:30Z</time>
      </trkpt>
      <trkpt lat="45.70902" lon="4.58293">
        <ele>711.23</ele>
        <time>2018-09-09T09:03:41Z</time>
      </trkpt>
      <trkpt lat="45.70894" lon="4.5833">
        <ele>711.29</ele>
        <time>2018-09-09T09:03:47Z</time>
      </trkpt>
      <trkpt lat="45.70893" lon="4.58349">
        <ele>711.44</ele>
        <time>2018-09-09T09:03:50Z</time>
      </trkpt>
      <trkpt lat="45.70891" lon="4.58363">
        <ele>711.58</ele>
        <time>2018-09-09T09:03:52Z</time>
      </trkpt>
      <trkpt lat="45.70841" lon="4.5856">
        <ele>707.54</ele>
        <time>2018-09-09T09:04:11Z</time>
      </trkpt>
      <trkpt lat="45.70827" lon="4.58658">
        <ele>704.42</ele>
        <time>2018-09-09T09:04:19Z</time>
      </trkpt>
      <trkpt lat="45.70817" lon="4.58742">
        <ele>701.54</ele>
        <time>2018-09-09T09:04:26Z</time>
      </trkpt>
      <trkpt lat="45.70812" lon="4.58751">
        <ele>700.81</ele>
        <time>2018-09-09T09:04:27Z</time>
      </trkpt>
      <trkpt lat="45.70805" lon="4.58758">
        <ele>700.43</ele>
        <time>2018-09-09T09:04:28Z</time>
      </trkpt>
      <trkpt lat="45.70783" lon="4.58769">
        <ele>699.55</ele>
        <time>2018-09-09T09:04:31Z</time>
      </trkpt>
      <trkpt lat="45.70772" lon="4.58782">
        <ele>699.31</ele>
        <time>2018-09-09T09:04:33Z</time>
      </trkpt>
      <trkpt lat="45.7074" lon="4.58861">
        <ele>702.61</ele>
        <time>2018-09-09T09:04:45Z</time>
      </trkpt>
      <trkpt lat="45.70734" lon="4.58906">
        <ele>706.24</ele>
        <time>2018-09-09T09:04:54Z</time>
      </trkpt>
      <trkpt lat="45.70759" lon="4.59017">
        <ele>711.7</ele>
        <time>2018-09-09T09:05:18Z</time>
      </trkpt>
      <trkpt lat="45.70766" lon="4.59036">
        <ele>712.09</ele>
        <time>2018-09-09T09:05:22Z</time>
      </trkpt>
      <trkpt lat="45.70775" lon="4.5905">
        <ele>712.12</ele>
        <time>2018-09-09T09:05:25Z</time>
      </trkpt>
      <trkpt lat="45.70777" lon="4.59055">
        <ele>712.09</ele>
        <time>2018-09-09T09:05:26Z</time>
      </trkpt>
      <trkpt lat="45.70778" lon="4.59066">
        <ele>712.04</ele>
        <time>2018-09-09T09:05:28Z</time>
      </trkpt>
      <trkpt lat="45.70777" lon="4.59083">
        <ele>712.12</ele>
        <time>2018-09-09T09:05:31Z</time>
      </trkpt>
      <trkpt lat="45.7077" lon="4.59112">
        <ele>711.85</ele>
        <time>2018-09-09T09:05:38Z</time>
      </trkpt>
      <trkpt lat="45.70778" lon="4.59144">
        <ele>710.57</ele>
        <time>2018-09-09T09:05:43Z</time>
      </trkpt>
      <trkpt lat="45.70789" lon="4.59182">
        <ele>706.52</ele>
        <time>2018-09-09T09:05:48Z</time>
      </trkpt>
      <trkpt lat="45.70792" lon="4.592">
        <ele>703</ele>
        <time>2018-09-09T09:05:51Z</time>
      </trkpt>
      <trkpt lat="45.70789" lon="4.59203">
        <ele>701.72</ele>
        <time>2018-09-09T09:05:52Z</time>
      </trkpt>
      <trkpt lat="45.70766" lon="4.59209">
        <ele>696.69</ele>
        <time>2018-09-09T09:05:56Z</time>
      </trkpt>
      <trkpt lat="45.70761" lon="4.59213">
        <ele>695.55</ele>
        <time>2018-09-09T09:05:57Z</time>
      </trkpt>
      <trkpt lat="45.70751" lon="4.59228">
        <ele>693.41</ele>
        <time>2018-09-09T09:05:59Z</time>
      </trkpt>
      <trkpt lat="45.70741" lon="4.5925">
        <ele>691.24</ele>
        <time>2018-09-09T09:06:01Z</time>
      </trkpt>
      <trkpt lat="45.70721" lon="4.5931">
        <ele>685.96</ele>
        <time>2018-09-09T09:06:05Z</time>
      </trkpt>
      <trkpt lat="45.707" lon="4.59394">
        <ele>678.02</ele>
        <time>2018-09-09T09:06:10Z</time>
      </trkpt>
      <trkpt lat="45.70688" lon="4.59431">
        <ele>673.91</ele>
        <time>2018-09-09T09:06:13Z</time>
      </trkpt>
      <trkpt lat="45.70688" lon="4.59439">
        <ele>672.36</ele>
        <time>2018-09-09T09:06:14Z</time>
      </trkpt>
      <trkpt lat="45.7069" lon="4.59446">
        <ele>670.77</ele>
        <time>2018-09-09T09:06:15Z</time>
      </trkpt>
      <trkpt lat="45.70695" lon="4.59449">
        <ele>669.17</ele>
        <time>2018-09-09T09:06:16Z</time>
      </trkpt>
      <trkpt lat="45.70703" lon="4.59448">
        <ele>667.71</ele>
        <time>2018-09-09T09:06:17Z</time>
      </trkpt>
      <trkpt lat="45.7072" lon="4.5944">
        <ele>665.05</ele>
        <time>2018-09-09T09:06:19Z</time>
      </trkpt>
      <trkpt lat="45.70746" lon="4.59425">
        <ele>661.25</ele>
        <time>2018-09-09T09:06:22Z</time>
      </trkpt>
      <trkpt lat="45.70773" lon="4.59403">
        <ele>656.87</ele>
        <time>2018-09-09T09:06:25Z</time>
      </trkpt>
      <trkpt lat="45.70801" lon="4.59376">
        <ele>652.37</ele>
        <time>2018-09-09T09:06:28Z</time>
      </trkpt>
      <trkpt lat="45.70812" lon="4.59371">
        <ele>650.97</ele>
        <time>2018-09-09T09:06:29Z</time>
      </trkpt>
      <trkpt lat="45.70823" lon="4.59367">
        <ele>649.65</ele>
        <time>2018-09-09T09:06:30Z</time>
      </trkpt>
      <trkpt lat="45.70834" lon="4.59366">
        <ele>647.2</ele>
        <time>2018-09-09T09:06:31Z</time>
      </trkpt>
      <trkpt lat="45.70893" lon="4.59373">
        <ele>640.29</ele>
        <time>2018-09-09T09:06:36Z</time>
      </trkpt>
      <trkpt lat="45.70914" lon="4.59368">
        <ele>636.48</ele>
        <time>2018-09-09T09:06:38Z</time>
      </trkpt>
      <trkpt lat="45.70942" lon="4.59371">
        <ele>630.85</ele>
        <time>2018-09-09T09:06:41Z</time>
      </trkpt>
      <trkpt lat="45.70979" lon="4.59349">
        <ele>623.34</ele>
        <time>2018-09-09T09:06:46Z</time>
      </trkpt>
      <trkpt lat="45.71005" lon="4.59323">
        <ele>617.77</ele>
        <time>2018-09-09T09:06:50Z</time>
      </trkpt>
      <trkpt lat="45.71023" lon="4.59327">
        <ele>613.85</ele>
        <time>2018-09-09T09:06:55Z</time>
      </trkpt>
      <trkpt lat="45.71025" lon="4.59332">
        <ele>613.85</ele>
        <time>2018-09-09T09:06:56Z</time>
      </trkpt>
      <trkpt lat="45.7104" lon="4.59385">
        <ele>612.16</ele>
        <time>2018-09-09T09:07:03Z</time>
      </trkpt>
      <trkpt lat="45.71046" lon="4.59425">
        <ele>612.72</ele>
        <time>2018-09-09T09:07:09Z</time>
      </trkpt>
      <trkpt lat="45.71047" lon="4.59449">
        <ele>613.11</ele>
        <time>2018-09-09T09:07:12Z</time>
      </trkpt>
      <trkpt lat="45.71058" lon="4.59481">
        <ele>612.78</ele>
        <time>2018-09-09T09:07:16Z</time>
      </trkpt>
      <trkpt lat="45.71076" lon="4.59528">
        <ele>610.76</ele>
        <time>2018-09-09T09:07:21Z</time>
      </trkpt>
      <trkpt lat="45.71096" lon="4.59558">
        <ele>606.87</ele>
        <time>2018-09-09T09:07:27Z</time>
      </trkpt>
      <trkpt lat="45.71127" lon="4.5958">
        <ele>599.6</ele>
        <time>2018-09-09T09:07:34Z</time>
      </trkpt>
      <trkpt lat="45.71162" lon="4.59579">
        <ele>589.83</ele>
        <time>2018-09-09T09:07:42Z</time>
      </trkpt>
      <trkpt lat="45.71164" lon="4.59577">
        <ele>585.56</ele>
        <time>2018-09-09T09:07:45Z</time>
      </trkpt>
      <trkpt lat="45.71175" lon="4.59584">
        <ele>582.36</ele>
        <time>2018-09-09T09:07:57Z</time>
      </trkpt>
      <trkpt lat="45.71182" lon="4.59617">
        <ele>582.08</ele>
        <time>2018-09-09T09:08:04Z</time>
      </trkpt>
      <trkpt lat="45.71184" lon="4.59644">
        <ele>582.02</ele>
        <time>2018-09-09T09:08:10Z</time>
      </trkpt>
      <trkpt lat="45.71178" lon="4.59682">
        <ele>583.24</ele>
        <time>2018-09-09T09:08:19Z</time>
      </trkpt>
      <trkpt lat="45.71174" lon="4.59726">
        <ele>584.46</ele>
        <time>2018-09-09T09:08:28Z</time>
      </trkpt>
      <trkpt lat="45.71188" lon="4.59759">
        <ele>585.05</ele>
        <time>2018-09-09T09:08:35Z</time>
      </trkpt>
      <trkpt lat="45.71218" lon="4.59803">
        <ele>584.79</ele>
        <time>2018-09-09T09:08:45Z</time>
      </trkpt>
      <trkpt lat="45.71236" lon="4.59824">
        <ele>584.39</ele>
        <time>2018-09-09T09:08:49Z</time>
      </trkpt>
      <trkpt lat="45.71249" lon="4.59844">
        <ele>583.92</ele>
        <time>2018-09-09T09:08:52Z</time>
      </trkpt>
      <trkpt lat="45.71263" lon="4.59858">
        <ele>583.21</ele>
        <time>2018-09-09T09:08:55Z</time>
      </trkpt>
      <trkpt lat="45.71285" lon="4.59877">
        <ele>582.23</ele>
        <time>2018-09-09T09:09:01Z</time>
      </trkpt>
      <trkpt lat="45.71305" lon="4.59901">
        <ele>582.13</ele>
        <time>2018-09-09T09:09:07Z</time>
      </trkpt>
      <trkpt lat="45.71335" lon="4.59958">
        <ele>579.51</ele>
        <time>2018-09-09T09:09:14Z</time>
      </trkpt>
      <trkpt lat="45.71352" lon="4.59995">
        <ele>576.47</ele>
        <time>2018-09-09T09:09:19Z</time>
      </trkpt>
      <trkpt lat="45.71363" lon="4.60029">
        <ele>574.11</ele>
        <time>2018-09-09T09:09:23Z</time>
      </trkpt>
      <trkpt lat="45.71379" lon="4.60065">
        <ele>570.76</ele>
        <time>2018-09-09T09:09:28Z</time>
      </trkpt>
      <trkpt lat="45.71408" lon="4.60133">
        <ele>568.08</ele>
        <time>2018-09-09T09:09:40Z</time>
      </trkpt>
      <trkpt lat="45.71419" lon="4.60147">
        <ele>568.2</ele>
        <time>2018-09-09T09:09:44Z</time>
      </trkpt>
      <trkpt lat="45.71437" lon="4.60177">
        <ele>570.73</ele>
        <time>2018-09-09T09:09:55Z</time>
      </trkpt>
      <trkpt lat="45.71453" lon="4.60219">
        <ele>571.62</ele>
        <time>2018-09-09T09:10:05Z</time>
      </trkpt>
      <trkpt lat="45.71455" lon="4.60235">
        <ele>571.49</ele>
        <time>2018-09-09T09:10:07Z</time>
      </trkpt>
      <trkpt lat="45.71477" lon="4.60262">
        <ele>569.28</ele>
        <time>2018-09-09T09:10:13Z</time>
      </trkpt>
      <trkpt lat="45.71542" lon="4.60259">
        <ele>562.37</ele>
        <time>2018-09-09T09:10:24Z</time>
      </trkpt>
      <trkpt lat="45.71539" lon="4.60268">
        <ele>558.98</ele>
        <time>2018-09-09T09:10:28Z</time>
      </trkpt>
      <trkpt lat="45.71531" lon="4.60276">
        <ele>557.22</ele>
        <time>2018-09-09T09:10:31Z</time>
      </trkpt>
      <trkpt lat="45.71512" lon="4.60286">
        <ele>555.79</ele>
        <time>2018-09-09T09:10:35Z</time>
      </trkpt>
      <trkpt lat="45.71483" lon="4.60296">
        <ele>553.87</ele>
        <time>2018-09-09T09:10:40Z</time>
      </trkpt>
      <trkpt lat="45.71467" lon="4.60304">
        <ele>553.08</ele>
        <time>2018-09-09T09:10:43Z</time>
      </trkpt>
      <trkpt lat="45.71433" lon="4.60302">
        <ele>552.32</ele>
        <time>2018-09-09T09:10:49Z</time>
      </trkpt>
      <trkpt lat="45.71403" lon="4.60283">
        <ele>549.3</ele>
        <time>2018-09-09T09:10:56Z</time>
      </trkpt>
      <trkpt lat="45.71382" lon="4.60266">
        <ele>544.72</ele>
        <time>2018-09-09T09:11:01Z</time>
      </trkpt>
      <trkpt lat="45.71361" lon="4.60256">
        <ele>540.86</ele>
        <time>2018-09-09T09:11:05Z</time>
      </trkpt>
      <trkpt lat="45.7135" lon="4.60239">
        <ele>537.29</ele>
        <time>2018-09-09T09:11:08Z</time>
      </trkpt>
      <trkpt lat="45.71347" lon="4.60221">
        <ele>534.26</ele>
        <time>2018-09-09T09:11:10Z</time>
      </trkpt>
      <trkpt lat="45.7134" lon="4.6014">
        <ele>531.04</ele>
        <time>2018-09-09T09:11:20Z</time>
      </trkpt>
      <trkpt lat="45.7133" lon="4.60115">
        <ele>531.09</ele>
        <time>2018-09-09T09:11:24Z</time>
      </trkpt>
      <trkpt lat="45.71301" lon="4.60051">
        <ele>530.85</ele>
        <time>2018-09-09T09:11:34Z</time>
      </trkpt>
      <trkpt lat="45.7128" lon="4.60028">
        <ele>530.81</ele>
        <time>2018-09-09T09:11:39Z</time>
      </trkpt>
      <trkpt lat="45.71251" lon="4.59994">
        <ele>531.03</ele>
        <time>2018-09-09T09:11:46Z</time>
      </trkpt>
      <trkpt lat="45.71228" lon="4.59977">
        <ele>530.68</ele>
        <time>2018-09-09T09:11:50Z</time>
      </trkpt>
      <trkpt lat="45.71185" lon="4.5996">
        <ele>528.21</ele>
        <time>2018-09-09T09:11:55Z</time>
      </trkpt>
      <trkpt lat="45.71171" lon="4.59951">
        <ele>527.19</ele>
        <time>2018-09-09T09:11:57Z</time>
      </trkpt>
      <trkpt lat="45.71158" lon="4.59956">
        <ele>524.87</ele>
        <time>2018-09-09T09:12:03Z</time>
      </trkpt>
      <trkpt lat="45.71157" lon="4.59963">
        <ele>523.56</ele>
        <time>2018-09-09T09:12:33Z</time>
      </trkpt>
      <trkpt lat="45.71142" lon="4.59976">
        <ele>527.15</ele>
        <time>2018-09-09T09:12:55Z</time>
      </trkpt>
      <trkpt lat="45.71136" lon="4.59983">
        <ele>529.62</ele>
        <time>2018-09-09T09:13:07Z</time>
      </trkpt>
      <trkpt lat="45.71132" lon="4.59995">
        <ele>532.2</ele>
        <time>2018-09-09T09:13:20Z</time>
      </trkpt>
      <trkpt lat="45.71139" lon="4.60022">
        <ele>537.53</ele>
        <time>2018-09-09T09:13:46Z</time>
      </trkpt>
      <trkpt lat="45.71141" lon="4.60038">
        <ele>539.97</ele>
        <time>2018-09-09T09:14:00Z</time>
      </trkpt>
      <trkpt lat="45.71138" lon="4.60052">
        <ele>542.15</ele>
        <time>2018-09-09T09:14:11Z</time>
      </trkpt>
      <trkpt lat="45.71141" lon="4.60062">
        <ele>543.48</ele>
        <time>2018-09-09T09:15:06Z</time>
      </trkpt>
      <trkpt lat="45.71139" lon="4.60061">
        <ele>543.4</ele>
        <time>2018-09-09T09:15:54Z</time>
      </trkpt>
      <trkpt lat="45.71148" lon="4.6006">
        <ele>543.59</ele>
        <time>2018-09-09T09:17:07Z</time>
      </trkpt>
      <trkpt lat="45.71153" lon="4.60065">
        <ele>543.56</ele>
        <time>2018-09-09T09:17:09Z</time>
      </trkpt>
      <trkpt lat="45.71177" lon="4.60098">
        <ele>542.08</ele>
        <time>2018-09-09T09:17:15Z</time>
      </trkpt>
      <trkpt lat="45.71202" lon="4.60153">
        <ele>540.04</ele>
        <time>2018-09-09T09:17:21Z</time>
      </trkpt>
      <trkpt lat="45.71237" lon="4.60285">
        <ele>533.53</ele>
        <time>2018-09-09T09:17:30Z</time>
      </trkpt>
      <trkpt lat="45.71241" lon="4.60316">
        <ele>531.06</ele>
        <time>2018-09-09T09:17:32Z</time>
      </trkpt>
      <trkpt lat="45.71241" lon="4.60343">
        <ele>527.14</ele>
        <time>2018-09-09T09:17:34Z</time>
      </trkpt>
      <trkpt lat="45.71236" lon="4.60387">
        <ele>524.45</ele>
        <time>2018-09-09T09:17:39Z</time>
      </trkpt>
      <trkpt lat="45.71233" lon="4.60406">
        <ele>525.11</ele>
        <time>2018-09-09T09:17:42Z</time>
      </trkpt>
      <trkpt lat="45.71229" lon="4.60443">
        <ele>527.31</ele>
        <time>2018-09-09T09:17:50Z</time>
      </trkpt>
      <trkpt lat="45.71204" lon="4.60533">
        <ele>530.81</ele>
        <time>2018-09-09T09:18:11Z</time>
      </trkpt>
      <trkpt lat="45.71178" lon="4.6071">
        <ele>529.12</ele>
        <time>2018-09-09T09:18:35Z</time>
      </trkpt>
      <trkpt lat="45.71174" lon="4.60754">
        <ele>528.63</ele>
        <time>2018-09-09T09:18:40Z</time>
      </trkpt>
      <trkpt lat="45.71166" lon="4.60806">
        <ele>529.4</ele>
        <time>2018-09-09T09:18:49Z</time>
      </trkpt>
      <trkpt lat="45.71166" lon="4.60836">
        <ele>530.08</ele>
        <time>2018-09-09T09:18:54Z</time>
      </trkpt>
      <trkpt lat="45.71164" lon="4.60852">
        <ele>530.11</ele>
        <time>2018-09-09T09:18:56Z</time>
      </trkpt>
      <trkpt lat="45.71158" lon="4.60873">
        <ele>529.9</ele>
        <time>2018-09-09T09:18:59Z</time>
      </trkpt>
      <trkpt lat="45.71155" lon="4.60876">
        <ele>529.78</ele>
        <time>2018-09-09T09:19:00Z</time>
      </trkpt>
      <trkpt lat="45.71153" lon="4.60877">
        <ele>529.67</ele>
        <time>2018-09-09T09:19:01Z</time>
      </trkpt>
      <trkpt lat="45.71129" lon="4.60864">
        <ele>530.93</ele>
        <time>2018-09-09T09:19:12Z</time>
      </trkpt>
      <trkpt lat="45.7111" lon="4.60881">
        <ele>532.88</ele>
        <time>2018-09-09T09:19:19Z</time>
      </trkpt>
      <trkpt lat="45.71106" lon="4.60887">
        <ele>532.91</ele>
        <time>2018-09-09T09:19:20Z</time>
      </trkpt>
      <trkpt lat="45.71084" lon="4.60958">
        <ele>529.18</ele>
        <time>2018-09-09T09:19:30Z</time>
      </trkpt>
      <trkpt lat="45.71069" lon="4.60996">
        <ele>526.81</ele>
        <time>2018-09-09T09:19:35Z</time>
      </trkpt>
      <trkpt lat="45.71067" lon="4.61033">
        <ele>524.95</ele>
        <time>2018-09-09T09:19:41Z</time>
      </trkpt>
      <trkpt lat="45.71083" lon="4.61092">
        <ele>529.02</ele>
        <time>2018-09-09T09:20:01Z</time>
      </trkpt>
      <trkpt lat="45.71084" lon="4.61123">
        <ele>531.28</ele>
        <time>2018-09-09T09:20:13Z</time>
      </trkpt>
      <trkpt lat="45.71089" lon="4.61143">
        <ele>533.23</ele>
        <time>2018-09-09T09:20:21Z</time>
      </trkpt>
      <trkpt lat="45.71091" lon="4.61193">
        <ele>535.09</ele>
        <time>2018-09-09T09:20:34Z</time>
      </trkpt>
      <trkpt lat="45.71084" lon="4.61227">
        <ele>534.54</ele>
        <time>2018-09-09T09:20:39Z</time>
      </trkpt>
      <trkpt lat="45.71047" lon="4.6128">
        <ele>531.5</ele>
        <time>2018-09-09T09:20:47Z</time>
      </trkpt>
      <trkpt lat="45.71027" lon="4.61304">
        <ele>529.83</ele>
        <time>2018-09-09T09:20:51Z</time>
      </trkpt>
      <trkpt lat="45.71019" lon="4.61351">
        <ele>529.47</ele>
        <time>2018-09-09T09:20:58Z</time>
      </trkpt>
      <trkpt lat="45.71027" lon="4.61389">
        <ele>529.27</ele>
        <time>2018-09-09T09:21:02Z</time>
      </trkpt>
      <trkpt lat="45.71046" lon="4.61457">
        <ele>527.97</ele>
        <time>2018-09-09T09:21:09Z</time>
      </trkpt>
      <trkpt lat="45.71054" lon="4.61504">
        <ele>527.94</ele>
        <time>2018-09-09T09:21:17Z</time>
      </trkpt>
      <trkpt lat="45.71057" lon="4.61545">
        <ele>527.82</ele>
        <time>2018-09-09T09:21:25Z</time>
      </trkpt>
      <trkpt lat="45.71062" lon="4.61563">
        <ele>526.67</ele>
        <time>2018-09-09T09:21:44Z</time>
      </trkpt>
      <trkpt lat="45.71055" lon="4.61615">
        <ele>525.42</ele>
        <time>2018-09-09T09:21:52Z</time>
      </trkpt>
      <trkpt lat="45.7104" lon="4.61666">
        <ele>524.01</ele>
        <time>2018-09-09T09:21:59Z</time>
      </trkpt>
      <trkpt lat="45.71039" lon="4.61736">
        <ele>523.16</ele>
        <time>2018-09-09T09:22:09Z</time>
      </trkpt>
      <trkpt lat="45.71036" lon="4.61777">
        <ele>524.39</ele>
        <time>2018-09-09T09:22:17Z</time>
      </trkpt>
      <trkpt lat="45.71031" lon="4.61889">
        <ele>524.36</ele>
        <time>2018-09-09T09:22:33Z</time>
      </trkpt>
      <trkpt lat="45.71029" lon="4.61913">
        <ele>523.73</ele>
        <time>2018-09-09T09:22:36Z</time>
      </trkpt>
      <trkpt lat="45.7102" lon="4.61969">
        <ele>522.93</ele>
        <time>2018-09-09T09:22:44Z</time>
      </trkpt>
      <trkpt lat="45.71011" lon="4.62001">
        <ele>523.32</ele>
        <time>2018-09-09T09:22:49Z</time>
      </trkpt>
      <trkpt lat="45.70988" lon="4.62064">
        <ele>527.1</ele>
        <time>2018-09-09T09:23:08Z</time>
      </trkpt>
      <trkpt lat="45.70979" lon="4.62101">
        <ele>528.92</ele>
        <time>2018-09-09T09:23:18Z</time>
      </trkpt>
      <trkpt lat="45.70976" lon="4.62125">
        <ele>529.63</ele>
        <time>2018-09-09T09:23:25Z</time>
      </trkpt>
      <trkpt lat="45.70962" lon="4.62171">
        <ele>532.51</ele>
        <time>2018-09-09T09:23:40Z</time>
      </trkpt>
      <trkpt lat="45.70964" lon="4.62249">
        <ele>533.04</ele>
        <time>2018-09-09T09:23:54Z</time>
      </trkpt>
      <trkpt lat="45.7097" lon="4.62284">
        <ele>531.75</ele>
        <time>2018-09-09T09:23:58Z</time>
      </trkpt>
      <trkpt lat="45.70991" lon="4.62334">
        <ele>530.21</ele>
        <time>2018-09-09T09:24:03Z</time>
      </trkpt>
      <trkpt lat="45.71029" lon="4.62386">
        <ele>526.19</ele>
        <time>2018-09-09T09:24:09Z</time>
      </trkpt>
      <trkpt lat="45.71081" lon="4.62473">
        <ele>525.17</ele>
        <time>2018-09-09T09:24:24Z</time>
      </trkpt>
      <trkpt lat="45.71113" lon="4.62495">
        <ele>526.97</ele>
        <time>2018-09-09T09:24:33Z</time>
      </trkpt>
      <trkpt lat="45.71123" lon="4.62499">
        <ele>527.89</ele>
        <time>2018-09-09T09:24:36Z</time>
      </trkpt>
      <trkpt lat="45.71156" lon="4.62519">
        <ele>527.06</ele>
        <time>2018-09-09T09:24:41Z</time>
      </trkpt>
      <trkpt lat="45.71195" lon="4.62598">
        <ele>519.7</ele>
        <time>2018-09-09T09:24:52Z</time>
      </trkpt>
      <trkpt lat="45.71203" lon="4.62617">
        <ele>516.71</ele>
        <time>2018-09-09T09:24:56Z</time>
      </trkpt>
      <trkpt lat="45.71248" lon="4.62687">
        <ele>510.41</ele>
        <time>2018-09-09T09:25:05Z</time>
      </trkpt>
      <trkpt lat="45.71312" lon="4.62794">
        <ele>496.87</ele>
        <time>2018-09-09T09:25:18Z</time>
      </trkpt>
      <trkpt lat="45.71334" lon="4.62843">
        <ele>490.79</ele>
        <time>2018-09-09T09:25:23Z</time>
      </trkpt>
      <trkpt lat="45.71356" lon="4.62904">
        <ele>484.26</ele>
        <time>2018-09-09T09:25:28Z</time>
      </trkpt>
      <trkpt lat="45.71362" lon="4.62924">
        <ele>481.84</ele>
        <time>2018-09-09T09:25:30Z</time>
      </trkpt>
      <trkpt lat="45.71363" lon="4.62934">
        <ele>480.53</ele>
        <time>2018-09-09T09:25:31Z</time>
      </trkpt>
      <trkpt lat="45.71361" lon="4.62954">
        <ele>477.84</ele>
        <time>2018-09-09T09:25:33Z</time>
      </trkpt>
      <trkpt lat="45.71356" lon="4.62976">
        <ele>475.31</ele>
        <time>2018-09-09T09:25:35Z</time>
      </trkpt>
      <trkpt lat="45.71346" lon="4.63005">
        <ele>467.08</ele>
        <time>2018-09-09T09:25:41Z</time>
      </trkpt>
      <trkpt lat="45.71349" lon="4.63005">
        <ele>459.38</ele>
        <time>2018-09-09T09:26:05Z</time>
      </trkpt>
      <trkpt lat="45.71346" lon="4.63028">
        <ele>459.12</ele>
        <time>2018-09-09T09:26:09Z</time>
      </trkpt>
      <trkpt lat="45.71338" lon="4.63061">
        <ele>458.07</ele>
        <time>2018-09-09T09:26:13Z</time>
      </trkpt>
      <trkpt lat="45.71333" lon="4.63067">
        <ele>457.61</ele>
        <time>2018-09-09T09:26:14Z</time>
      </trkpt>
      <trkpt lat="45.71325" lon="4.63072">
        <ele>457.07</ele>
        <time>2018-09-09T09:26:15Z</time>
      </trkpt>
      <trkpt lat="45.7127" lon="4.63096">
        <ele>452.51</ele>
        <time>2018-09-09T09:26:21Z</time>
      </trkpt>
      <trkpt lat="45.71261" lon="4.63098">
        <ele>451.79</ele>
        <time>2018-09-09T09:26:22Z</time>
      </trkpt>
      <trkpt lat="45.71253" lon="4.63102">
        <ele>451</ele>
        <time>2018-09-09T09:26:23Z</time>
      </trkpt>
      <trkpt lat="45.71249" lon="4.63109">
        <ele>450.16</ele>
        <time>2018-09-09T09:26:24Z</time>
      </trkpt>
      <trkpt lat="45.71247" lon="4.63119">
        <ele>449.28</ele>
        <time>2018-09-09T09:26:25Z</time>
      </trkpt>
      <trkpt lat="45.71249" lon="4.63132">
        <ele>448.33</ele>
        <time>2018-09-09T09:26:26Z</time>
      </trkpt>
      <trkpt lat="45.71252" lon="4.63142">
        <ele>447.39</ele>
        <time>2018-09-09T09:26:27Z</time>
      </trkpt>
      <trkpt lat="45.71258" lon="4.63149">
        <ele>446.52</ele>
        <time>2018-09-09T09:26:28Z</time>
      </trkpt>
      <trkpt lat="45.71267" lon="4.63153">
        <ele>445.69</ele>
        <time>2018-09-09T09:26:29Z</time>
      </trkpt>
      <trkpt lat="45.71307" lon="4.63154">
        <ele>442.98</ele>
        <time>2018-09-09T09:26:33Z</time>
      </trkpt>
      <trkpt lat="45.71339" lon="4.63164">
        <ele>440.66</ele>
        <time>2018-09-09T09:26:36Z</time>
      </trkpt>
      <trkpt lat="45.71349" lon="4.6316">
        <ele>439.81</ele>
        <time>2018-09-09T09:26:37Z</time>
      </trkpt>
      <trkpt lat="45.71369" lon="4.63148">
        <ele>437.86</ele>
        <time>2018-09-09T09:26:39Z</time>
      </trkpt>
      <trkpt lat="45.71408" lon="4.63142">
        <ele>432.89</ele>
        <time>2018-09-09T09:26:43Z</time>
      </trkpt>
      <trkpt lat="45.71462" lon="4.63146">
        <ele>429.5</ele>
        <time>2018-09-09T09:26:49Z</time>
      </trkpt>
      <trkpt lat="45.71489" lon="4.63158">
        <ele>428.17</ele>
        <time>2018-09-09T09:26:52Z</time>
      </trkpt>
      <trkpt lat="45.71513" lon="4.63179">
        <ele>426.8</ele>
        <time>2018-09-09T09:26:55Z</time>
      </trkpt>
      <trkpt lat="45.71564" lon="4.63257">
        <ele>423.8</ele>
        <time>2018-09-09T09:27:03Z</time>
      </trkpt>
      <trkpt lat="45.71581" lon="4.63271">
        <ele>422.68</ele>
        <time>2018-09-09T09:27:05Z</time>
      </trkpt>
      <trkpt lat="45.7161" lon="4.63281">
        <ele>420.48</ele>
        <time>2018-09-09T09:27:08Z</time>
      </trkpt>
      <trkpt lat="45.71668" lon="4.63304">
        <ele>417.8</ele>
        <time>2018-09-09T09:27:14Z</time>
      </trkpt>
      <trkpt lat="45.71677" lon="4.63311">
        <ele>417.24</ele>
        <time>2018-09-09T09:27:15Z</time>
      </trkpt>
      <trkpt lat="45.71685" lon="4.63321">
        <ele>416.65</ele>
        <time>2018-09-09T09:27:16Z</time>
      </trkpt>
      <trkpt lat="45.71691" lon="4.63334">
        <ele>415.98</ele>
        <time>2018-09-09T09:27:17Z</time>
      </trkpt>
      <trkpt lat="45.71695" lon="4.63348">
        <ele>415.27</ele>
        <time>2018-09-09T09:27:18Z</time>
      </trkpt>
      <trkpt lat="45.71697" lon="4.63364">
        <ele>414.56</ele>
        <time>2018-09-09T09:27:19Z</time>
      </trkpt>
      <trkpt lat="45.71704" lon="4.63459">
        <ele>410.01</ele>
        <time>2018-09-09T09:27:25Z</time>
      </trkpt>
      <trkpt lat="45.71707" lon="4.63474">
        <ele>409.28</ele>
        <time>2018-09-09T09:27:26Z</time>
      </trkpt>
      <trkpt lat="45.71725" lon="4.63534">
        <ele>405.37</ele>
        <time>2018-09-09T09:27:30Z</time>
      </trkpt>
      <trkpt lat="45.7174" lon="4.63594">
        <ele>401.97</ele>
        <time>2018-09-09T09:27:34Z</time>
      </trkpt>
      <trkpt lat="45.71749" lon="4.63624">
        <ele>399.73</ele>
        <time>2018-09-09T09:27:37Z</time>
      </trkpt>
      <trkpt lat="45.71755" lon="4.63626">
        <ele>399</ele>
        <time>2018-09-09T09:27:38Z</time>
      </trkpt>
      <trkpt lat="45.71761" lon="4.63621">
        <ele>398.22</ele>
        <time>2018-09-09T09:27:39Z</time>
      </trkpt>
      <trkpt lat="45.71764" lon="4.63611">
        <ele>397.42</ele>
        <time>2018-09-09T09:27:40Z</time>
      </trkpt>
      <trkpt lat="45.71759" lon="4.63536">
        <ele>393.28</ele>
        <time>2018-09-09T09:27:46Z</time>
      </trkpt>
      <trkpt lat="45.71762" lon="4.63524">
        <ele>392.56</ele>
        <time>2018-09-09T09:27:47Z</time>
      </trkpt>
      <trkpt lat="45.71768" lon="4.63515">
        <ele>391.81</ele>
        <time>2018-09-09T09:27:48Z</time>
      </trkpt>
      <trkpt lat="45.71777" lon="4.63511">
        <ele>391.09</ele>
        <time>2018-09-09T09:27:49Z</time>
      </trkpt>
      <trkpt lat="45.71784" lon="4.63511">
        <ele>390.37</ele>
        <time>2018-09-09T09:27:50Z</time>
      </trkpt>
      <trkpt lat="45.71791" lon="4.63514">
        <ele>389.61</ele>
        <time>2018-09-09T09:27:51Z</time>
      </trkpt>
      <trkpt lat="45.71797" lon="4.6352">
        <ele>388.88</ele>
        <time>2018-09-09T09:27:52Z</time>
      </trkpt>
      <trkpt lat="45.71801" lon="4.63529">
        <ele>388.22</ele>
        <time>2018-09-09T09:27:53Z</time>
      </trkpt>
      <trkpt lat="45.71811" lon="4.63561">
        <ele>386.3</ele>
        <time>2018-09-09T09:27:56Z</time>
      </trkpt>
      <trkpt lat="45.71826" lon="4.63629">
        <ele>383.02</ele>
        <time>2018-09-09T09:28:02Z</time>
      </trkpt>
      <trkpt lat="45.71834" lon="4.6374">
        <ele>380.82</ele>
        <time>2018-09-09T09:28:11Z</time>
      </trkpt>
      <trkpt lat="45.71837" lon="4.63812">
        <ele>379.73</ele>
        <time>2018-09-09T09:28:17Z</time>
      </trkpt>
      <trkpt lat="45.7184" lon="4.63836">
        <ele>379.44</ele>
        <time>2018-09-09T09:28:19Z</time>
      </trkpt>
      <trkpt lat="45.71846" lon="4.63858">
        <ele>379.19</ele>
        <time>2018-09-09T09:28:21Z</time>
      </trkpt>
      <trkpt lat="45.71894" lon="4.6395">
        <ele>377.69</ele>
        <time>2018-09-09T09:28:31Z</time>
      </trkpt>
      <trkpt lat="45.71951" lon="4.64012">
        <ele>376.52</ele>
        <time>2018-09-09T09:28:41Z</time>
      </trkpt>
      <trkpt lat="45.71975" lon="4.64049">
        <ele>376.04</ele>
        <time>2018-09-09T09:28:46Z</time>
      </trkpt>
      <trkpt lat="45.71981" lon="4.64067">
        <ele>375.81</ele>
        <time>2018-09-09T09:28:48Z</time>
      </trkpt>
      <trkpt lat="45.71994" lon="4.64168">
        <ele>374.6</ele>
        <time>2018-09-09T09:28:58Z</time>
      </trkpt>
      <trkpt lat="45.72002" lon="4.6431">
        <ele>371.42</ele>
        <time>2018-09-09T09:29:11Z</time>
      </trkpt>
      <trkpt lat="45.72023" lon="4.64432">
        <ele>369.81</ele>
        <time>2018-09-09T09:29:23Z</time>
      </trkpt>
      <trkpt lat="45.7213" lon="4.64666">
        <ele>372.98</ele>
        <time>2018-09-09T09:29:56Z</time>
      </trkpt>
      <trkpt lat="45.72149" lon="4.64714">
        <ele>376.05</ele>
        <time>2018-09-09T09:30:06Z</time>
      </trkpt>
      <trkpt lat="45.7221" lon="4.64902">
        <ele>380.37</ele>
        <time>2018-09-09T09:30:40Z</time>
      </trkpt>
      <trkpt lat="45.72252" lon="4.64966">
        <ele>381.37</ele>
        <time>2018-09-09T09:30:53Z</time>
      </trkpt>
      <trkpt lat="45.72268" lon="4.64974">
        <ele>381.19</ele>
        <time>2018-09-09T09:30:56Z</time>
      </trkpt>
      <trkpt lat="45.72287" lon="4.64976">
        <ele>380.96</ele>
        <time>2018-09-09T09:30:59Z</time>
      </trkpt>
      <trkpt lat="45.72301" lon="4.64973">
        <ele>380.71</ele>
        <time>2018-09-09T09:31:01Z</time>
      </trkpt>
      <trkpt lat="45.72345" lon="4.64959">
        <ele>379.74</ele>
        <time>2018-09-09T09:31:07Z</time>
      </trkpt>
      <trkpt lat="45.72353" lon="4.64961">
        <ele>379.6</ele>
        <time>2018-09-09T09:31:08Z</time>
      </trkpt>
      <trkpt lat="45.72361" lon="4.64966">
        <ele>379.45</ele>
        <time>2018-09-09T09:31:09Z</time>
      </trkpt>
      <trkpt lat="45.72368" lon="4.64974">
        <ele>379.24</ele>
        <time>2018-09-09T09:31:10Z</time>
      </trkpt>
      <trkpt lat="45.72372" lon="4.64985">
        <ele>379.01</ele>
        <time>2018-09-09T09:31:11Z</time>
      </trkpt>
      <trkpt lat="45.72373" lon="4.64997">
        <ele>378.77</ele>
        <time>2018-09-09T09:31:12Z</time>
      </trkpt>
      <trkpt lat="45.72374" lon="4.65123">
        <ele>379.02</ele>
        <time>2018-09-09T09:31:25Z</time>
      </trkpt>
      <trkpt lat="45.72386" lon="4.65212">
        <ele>380.44</ele>
        <time>2018-09-09T09:31:37Z</time>
      </trkpt>
      <trkpt lat="45.72413" lon="4.65289">
        <ele>382.2</ele>
        <time>2018-09-09T09:31:50Z</time>
      </trkpt>
      <trkpt lat="45.72456" lon="4.65338">
        <ele>384.4</ele>
        <time>2018-09-09T09:32:03Z</time>
      </trkpt>
      <trkpt lat="45.72512" lon="4.65372">
        <ele>385.84</ele>
        <time>2018-09-09T09:32:17Z</time>
      </trkpt>
      <trkpt lat="45.72552" lon="4.65401">
        <ele>385.32</ele>
        <time>2018-09-09T09:32:25Z</time>
      </trkpt>
      <trkpt lat="45.7261" lon="4.65432">
        <ele>384</ele>
        <time>2018-09-09T09:32:34Z</time>
      </trkpt>
      <trkpt lat="45.72616" lon="4.65438">
        <ele>383.75</ele>
        <time>2018-09-09T09:32:35Z</time>
      </trkpt>
      <trkpt lat="45.72621" lon="4.65445">
        <ele>383.55</ele>
        <time>2018-09-09T09:32:36Z</time>
      </trkpt>
      <trkpt lat="45.72635" lon="4.65492">
        <ele>383.12</ele>
        <time>2018-09-09T09:32:42Z</time>
      </trkpt>
      <trkpt lat="45.72642" lon="4.65502">
        <ele>383.2</ele>
        <time>2018-09-09T09:32:44Z</time>
      </trkpt>
      <trkpt lat="45.7265" lon="4.65509">
        <ele>383.67</ele>
        <time>2018-09-09T09:32:46Z</time>
      </trkpt>
      <trkpt lat="45.72693" lon="4.65517">
        <ele>388.67</ele>
        <time>2018-09-09T09:33:00Z</time>
      </trkpt>
      <trkpt lat="45.72718" lon="4.65528">
        <ele>390.54</ele>
        <time>2018-09-09T09:33:09Z</time>
      </trkpt>
      <trkpt lat="45.72739" lon="4.65533">
        <ele>391.22</ele>
        <time>2018-09-09T09:33:17Z</time>
      </trkpt>
      <trkpt lat="45.72774" lon="4.65527">
        <ele>391.01</ele>
        <time>2018-09-09T09:33:27Z</time>
      </trkpt>
      <trkpt lat="45.72822" lon="4.65541">
        <ele>391.09</ele>
        <time>2018-09-09T09:33:38Z</time>
      </trkpt>
      <trkpt lat="45.7288" lon="4.65561">
        <ele>391.12</ele>
        <time>2018-09-09T09:33:52Z</time>
      </trkpt>
      <trkpt lat="45.7293" lon="4.65564">
        <ele>390.54</ele>
        <time>2018-09-09T09:34:03Z</time>
      </trkpt>
      <trkpt lat="45.72998" lon="4.65577">
        <ele>388.9</ele>
        <time>2018-09-09T09:34:16Z</time>
      </trkpt>
      <trkpt lat="45.73015" lon="4.65582">
        <ele>387.7</ele>
        <time>2018-09-09T09:34:24Z</time>
      </trkpt>
      <trkpt lat="45.73034" lon="4.65604">
        <ele>386.11</ele>
        <time>2018-09-09T09:34:30Z</time>
      </trkpt>
      <trkpt lat="45.73074" lon="4.65631">
        <ele>384.53</ele>
        <time>2018-09-09T09:34:36Z</time>
      </trkpt>
      <trkpt lat="45.73092" lon="4.65636">
        <ele>383.76</ele>
        <time>2018-09-09T09:34:38Z</time>
      </trkpt>
      <trkpt lat="45.73172" lon="4.65635">
        <ele>378.18</ele>
        <time>2018-09-09T09:34:47Z</time>
      </trkpt>
      <trkpt lat="45.73185" lon="4.65636">
        <ele>376.64</ele>
        <time>2018-09-09T09:34:49Z</time>
      </trkpt>
      <trkpt lat="45.73199" lon="4.65633">
        <ele>375.14</ele>
        <time>2018-09-09T09:34:51Z</time>
      </trkpt>
      <trkpt lat="45.73234" lon="4.65613">
        <ele>370.28</ele>
        <time>2018-09-09T09:34:56Z</time>
      </trkpt>
      <trkpt lat="45.73259" lon="4.65607">
        <ele>367.55</ele>
        <time>2018-09-09T09:35:00Z</time>
      </trkpt>
      <trkpt lat="45.73265" lon="4.65609">
        <ele>366.84</ele>
        <time>2018-09-09T09:35:01Z</time>
      </trkpt>
      <trkpt lat="45.73277" lon="4.65616">
        <ele>365.49</ele>
        <time>2018-09-09T09:35:03Z</time>
      </trkpt>
      <trkpt lat="45.73296" lon="4.65636">
        <ele>363.25</ele>
        <time>2018-09-09T09:35:07Z</time>
      </trkpt>
      <trkpt lat="45.73327" lon="4.6568">
        <ele>366.36</ele>
        <time>2018-09-09T09:35:25Z</time>
      </trkpt>
      <trkpt lat="45.73345" lon="4.65683">
        <ele>368.47</ele>
        <time>2018-09-09T09:35:35Z</time>
      </trkpt>
      <trkpt lat="45.73387" lon="4.65645">
        <ele>373.69</ele>
        <time>2018-09-09T09:36:06Z</time>
      </trkpt>
      <trkpt lat="45.73409" lon="4.65632">
        <ele>375.29</ele>
        <time>2018-09-09T09:36:20Z</time>
      </trkpt>
      <trkpt lat="45.73429" lon="4.65629">
        <ele>377.51</ele>
        <time>2018-09-09T09:36:32Z</time>
      </trkpt>
      <trkpt lat="45.73483" lon="4.65633">
        <ele>381.49</ele>
        <time>2018-09-09T09:37:01Z</time>
      </trkpt>
      <trkpt lat="45.73539" lon="4.65642">
        <ele>387.4</ele>
        <time>2018-09-09T09:37:28Z</time>
      </trkpt>
      <trkpt lat="45.73585" lon="4.65643">
        <ele>393.56</ele>
        <time>2018-09-09T09:37:55Z</time>
      </trkpt>
      <trkpt lat="45.7359" lon="4.65645">
        <ele>394.09</ele>
        <time>2018-09-09T09:37:58Z</time>
      </trkpt>
      <trkpt lat="45.73641" lon="4.65644">
        <ele>398.68</ele>
        <time>2018-09-09T09:38:27Z</time>
      </trkpt>
      <trkpt lat="45.7369" lon="4.65645">
        <ele>403.5</ele>
        <time>2018-09-09T09:38:55Z</time>
      </trkpt>
      <trkpt lat="45.73718" lon="4.65651">
        <ele>406.68</ele>
        <time>2018-09-09T09:39:11Z</time>
      </trkpt>
      <trkpt lat="45.73719" lon="4.65645">
        <ele>407.2</ele>
        <time>2018-09-09T09:39:13Z</time>
      </trkpt>
      <trkpt lat="45.73717" lon="4.65639">
        <ele>407.71</ele>
        <time>2018-09-09T09:39:15Z</time>
      </trkpt>
      <trkpt lat="45.73689" lon="4.65588">
        <ele>406.67</ele>
        <time>2018-09-09T09:39:23Z</time>
      </trkpt>
      <trkpt lat="45.7369" lon="4.65581">
        <ele>406.01</ele>
        <time>2018-09-09T09:39:24Z</time>
      </trkpt>
      <trkpt lat="45.73695" lon="4.65571">
        <ele>404.66</ele>
        <time>2018-09-09T09:39:26Z</time>
      </trkpt>
      <trkpt lat="45.73695" lon="4.65563">
        <ele>403.56</ele>
        <time>2018-09-09T09:39:28Z</time>
      </trkpt>
      <trkpt lat="45.73697" lon="4.65563">
        <ele>403.75</ele>
        <time>2018-09-09T09:39:40Z</time>
      </trkpt>
    </trkseg>
  </trk>
</gpx>